<?xml version="1.0" encoding="UTF-8" standalone="no" ?>
<gpx xmlns="http://www.topografix.com/GPX/1/1" xmlns:xsi="http://www.w3.org/2001/XMLSchema-instance" xsi:schemaLocation="http://www.topografix.com/GPX/1/1 http://www.topografix.com/GPX/1/1/gpx.xsd" version="1.1" creator="VisuGPX - https://www.visugpx.com">
  <metadata>
    <name>RLB - Rando du patrimoine - Route - G</name>
  </metadata>
  <trk>
    <name><![CDATA[RLB - Rando du patrimoine - Route - G-21156743]]></name>
    <trkseg>
      <trkpt lat="47.80953" lon="2.30813">
        <ele>112</ele>
        <time>2025-04-20T14:02:57Z</time>
      </trkpt>
      <trkpt lat="47.80954" lon="2.30814">
        <ele>112</ele>
        <time>2025-04-20T14:02:57Z</time>
      </trkpt>
      <trkpt lat="47.80957" lon="2.30818">
        <ele>112</ele>
        <time>2025-04-20T14:02:58Z</time>
      </trkpt>
      <trkpt lat="47.80978" lon="2.30771">
        <ele>111</ele>
        <time>2025-04-20T14:03:05Z</time>
      </trkpt>
      <trkpt lat="47.80985" lon="2.30764">
        <ele>111</ele>
        <time>2025-04-20T14:03:06Z</time>
      </trkpt>
      <trkpt lat="47.81024" lon="2.30711">
        <ele>111</ele>
        <time>2025-04-20T14:03:16Z</time>
      </trkpt>
      <trkpt lat="47.81025" lon="2.30709">
        <ele>111</ele>
        <time>2025-04-20T14:03:16Z</time>
      </trkpt>
      <trkpt lat="47.81033" lon="2.30709">
        <ele>111</ele>
        <time>2025-04-20T14:03:17Z</time>
      </trkpt>
      <trkpt lat="47.81041" lon="2.30714">
        <ele>111</ele>
        <time>2025-04-20T14:03:19Z</time>
      </trkpt>
      <trkpt lat="47.81047" lon="2.3073">
        <ele>111</ele>
        <time>2025-04-20T14:03:21Z</time>
      </trkpt>
      <trkpt lat="47.81058" lon="2.30777">
        <ele>110</ele>
        <time>2025-04-20T14:03:27Z</time>
      </trkpt>
      <trkpt lat="47.81067" lon="2.30811">
        <ele>110</ele>
        <time>2025-04-20T14:03:31Z</time>
      </trkpt>
      <trkpt lat="47.81073" lon="2.30823">
        <ele>109</ele>
        <time>2025-04-20T14:03:33Z</time>
      </trkpt>
      <trkpt lat="47.81079" lon="2.30834">
        <ele>109</ele>
        <time>2025-04-20T14:03:35Z</time>
      </trkpt>
      <trkpt lat="47.81079" lon="2.30835">
        <ele>109</ele>
        <time>2025-04-20T14:03:35Z</time>
      </trkpt>
      <trkpt lat="47.81086" lon="2.30848">
        <ele>109</ele>
        <time>2025-04-20T14:03:37Z</time>
      </trkpt>
      <trkpt lat="47.81095" lon="2.30866">
        <ele>110</ele>
        <time>2025-04-20T14:03:40Z</time>
      </trkpt>
      <trkpt lat="47.81103" lon="2.3088">
        <ele>110</ele>
        <time>2025-04-20T14:03:42Z</time>
      </trkpt>
      <trkpt lat="47.81108" lon="2.30889">
        <ele>110</ele>
        <time>2025-04-20T14:03:43Z</time>
      </trkpt>
      <trkpt lat="47.81112" lon="2.30898">
        <ele>110</ele>
        <time>2025-04-20T14:03:44Z</time>
      </trkpt>
      <trkpt lat="47.81131" lon="2.30934">
        <ele>111</ele>
        <time>2025-04-20T14:03:50Z</time>
      </trkpt>
      <trkpt lat="47.81136" lon="2.30944">
        <ele>111</ele>
        <time>2025-04-20T14:03:51Z</time>
      </trkpt>
      <trkpt lat="47.81149" lon="2.30968">
        <ele>111</ele>
        <time>2025-04-20T14:03:55Z</time>
      </trkpt>
      <trkpt lat="47.81152" lon="2.30972">
        <ele>111</ele>
        <time>2025-04-20T14:03:56Z</time>
      </trkpt>
      <trkpt lat="47.81179" lon="2.31008">
        <ele>111</ele>
        <time>2025-04-20T14:04:02Z</time>
      </trkpt>
      <trkpt lat="47.81201" lon="2.31037">
        <ele>110</ele>
        <time>2025-04-20T14:04:08Z</time>
      </trkpt>
      <trkpt lat="47.81294" lon="2.31149">
        <ele>110</ele>
        <time>2025-04-20T14:04:29Z</time>
      </trkpt>
      <trkpt lat="47.81299" lon="2.31155">
        <ele>110</ele>
        <time>2025-04-20T14:04:30Z</time>
      </trkpt>
      <trkpt lat="47.81306" lon="2.31181">
        <ele>110</ele>
        <time>2025-04-20T14:04:33Z</time>
      </trkpt>
      <trkpt lat="47.8131" lon="2.31204">
        <ele>109</ele>
        <time>2025-04-20T14:04:36Z</time>
      </trkpt>
      <trkpt lat="47.81303" lon="2.31221">
        <ele>109</ele>
        <time>2025-04-20T14:04:39Z</time>
      </trkpt>
      <trkpt lat="47.81294" lon="2.31238">
        <ele>109</ele>
        <time>2025-04-20T14:04:41Z</time>
      </trkpt>
      <trkpt lat="47.81288" lon="2.31249">
        <ele>108</ele>
        <time>2025-04-20T14:04:43Z</time>
      </trkpt>
      <trkpt lat="47.8128" lon="2.31258">
        <ele>108</ele>
        <time>2025-04-20T14:04:45Z</time>
      </trkpt>
      <trkpt lat="47.81229" lon="2.31301">
        <ele>109</ele>
        <time>2025-04-20T14:04:55Z</time>
      </trkpt>
      <trkpt lat="47.81211" lon="2.31314">
        <ele>109</ele>
        <time>2025-04-20T14:04:59Z</time>
      </trkpt>
      <trkpt lat="47.8121" lon="2.31316">
        <ele>109</ele>
        <time>2025-04-20T14:04:59Z</time>
      </trkpt>
      <trkpt lat="47.81208" lon="2.31368">
        <ele>109</ele>
        <time>2025-04-20T14:05:05Z</time>
      </trkpt>
      <trkpt lat="47.81205" lon="2.31496">
        <ele>109</ele>
        <time>2025-04-20T14:05:20Z</time>
      </trkpt>
      <trkpt lat="47.812" lon="2.31624">
        <ele>110</ele>
        <time>2025-04-20T14:05:36Z</time>
      </trkpt>
      <trkpt lat="47.81195" lon="2.31723">
        <ele>109</ele>
        <time>2025-04-20T14:05:48Z</time>
      </trkpt>
      <trkpt lat="47.81192" lon="2.31809">
        <ele>109</ele>
        <time>2025-04-20T14:05:58Z</time>
      </trkpt>
      <trkpt lat="47.81193" lon="2.31828">
        <ele>109</ele>
        <time>2025-04-20T14:06:00Z</time>
      </trkpt>
      <trkpt lat="47.81192" lon="2.31828">
        <ele>109</ele>
        <time>2025-04-20T14:06:00Z</time>
      </trkpt>
      <trkpt lat="47.81193" lon="2.31828">
        <ele>109</ele>
        <time>2025-04-20T14:06:01Z</time>
      </trkpt>
      <trkpt lat="47.81232" lon="2.31816">
        <ele>109</ele>
        <time>2025-04-20T14:06:08Z</time>
      </trkpt>
      <trkpt lat="47.81264" lon="2.31809">
        <ele>109</ele>
        <time>2025-04-20T14:06:13Z</time>
      </trkpt>
      <trkpt lat="47.81277" lon="2.31806">
        <ele>109</ele>
        <time>2025-04-20T14:06:16Z</time>
      </trkpt>
      <trkpt lat="47.81318" lon="2.31802">
        <ele>108</ele>
        <time>2025-04-20T14:06:23Z</time>
      </trkpt>
      <trkpt lat="47.81331" lon="2.31802">
        <ele>108</ele>
        <time>2025-04-20T14:06:25Z</time>
      </trkpt>
      <trkpt lat="47.8135" lon="2.31807">
        <ele>108</ele>
        <time>2025-04-20T14:06:29Z</time>
      </trkpt>
      <trkpt lat="47.81368" lon="2.31813">
        <ele>108</ele>
        <time>2025-04-20T14:06:32Z</time>
      </trkpt>
      <trkpt lat="47.81433" lon="2.31845">
        <ele>109</ele>
        <time>2025-04-20T14:06:44Z</time>
      </trkpt>
      <trkpt lat="47.81512" lon="2.31873">
        <ele>110</ele>
        <time>2025-04-20T14:06:59Z</time>
      </trkpt>
      <trkpt lat="47.81538" lon="2.31889">
        <ele>110</ele>
        <time>2025-04-20T14:07:04Z</time>
      </trkpt>
      <trkpt lat="47.81645" lon="2.31978">
        <ele>108</ele>
        <time>2025-04-20T14:07:25Z</time>
      </trkpt>
      <trkpt lat="47.81663" lon="2.31994">
        <ele>108</ele>
        <time>2025-04-20T14:07:29Z</time>
      </trkpt>
      <trkpt lat="47.81679" lon="2.32014">
        <ele>108</ele>
        <time>2025-04-20T14:07:33Z</time>
      </trkpt>
      <trkpt lat="47.81692" lon="2.32044">
        <ele>108</ele>
        <time>2025-04-20T14:07:37Z</time>
      </trkpt>
      <trkpt lat="47.81703" lon="2.32071">
        <ele>108</ele>
        <time>2025-04-20T14:07:41Z</time>
      </trkpt>
      <trkpt lat="47.81755" lon="2.32125">
        <ele>109</ele>
        <time>2025-04-20T14:07:52Z</time>
      </trkpt>
      <trkpt lat="47.81761" lon="2.32151">
        <ele>109</ele>
        <time>2025-04-20T14:07:56Z</time>
      </trkpt>
      <trkpt lat="47.81793" lon="2.3241">
        <ele>110</ele>
        <time>2025-04-20T14:08:27Z</time>
      </trkpt>
      <trkpt lat="47.81797" lon="2.32458">
        <ele>110</ele>
        <time>2025-04-20T14:08:33Z</time>
      </trkpt>
      <trkpt lat="47.81798" lon="2.32505">
        <ele>109</ele>
        <time>2025-04-20T14:08:38Z</time>
      </trkpt>
      <trkpt lat="47.81799" lon="2.32525">
        <ele>109</ele>
        <time>2025-04-20T14:08:41Z</time>
      </trkpt>
      <trkpt lat="47.81802" lon="2.32551">
        <ele>109</ele>
        <time>2025-04-20T14:08:44Z</time>
      </trkpt>
      <trkpt lat="47.81808" lon="2.32584">
        <ele>108</ele>
        <time>2025-04-20T14:08:48Z</time>
      </trkpt>
      <trkpt lat="47.81821" lon="2.3264">
        <ele>108</ele>
        <time>2025-04-20T14:08:55Z</time>
      </trkpt>
      <trkpt lat="47.81829" lon="2.32668">
        <ele>108</ele>
        <time>2025-04-20T14:08:59Z</time>
      </trkpt>
      <trkpt lat="47.81835" lon="2.32684">
        <ele>108</ele>
        <time>2025-04-20T14:09:01Z</time>
      </trkpt>
      <trkpt lat="47.81846" lon="2.32711">
        <ele>109</ele>
        <time>2025-04-20T14:09:05Z</time>
      </trkpt>
      <trkpt lat="47.81875" lon="2.3277">
        <ele>109</ele>
        <time>2025-04-20T14:09:13Z</time>
      </trkpt>
      <trkpt lat="47.81886" lon="2.32797">
        <ele>109</ele>
        <time>2025-04-20T14:09:17Z</time>
      </trkpt>
      <trkpt lat="47.81899" lon="2.3283">
        <ele>109</ele>
        <time>2025-04-20T14:09:22Z</time>
      </trkpt>
      <trkpt lat="47.81907" lon="2.3285">
        <ele>109</ele>
        <time>2025-04-20T14:09:25Z</time>
      </trkpt>
      <trkpt lat="47.81911" lon="2.32859">
        <ele>109</ele>
        <time>2025-04-20T14:09:26Z</time>
      </trkpt>
      <trkpt lat="47.81924" lon="2.32878">
        <ele>109</ele>
        <time>2025-04-20T14:09:29Z</time>
      </trkpt>
      <trkpt lat="47.81932" lon="2.32887">
        <ele>109</ele>
        <time>2025-04-20T14:09:31Z</time>
      </trkpt>
      <trkpt lat="47.81972" lon="2.3293">
        <ele>109</ele>
        <time>2025-04-20T14:09:40Z</time>
      </trkpt>
      <trkpt lat="47.82001" lon="2.32947">
        <ele>110</ele>
        <time>2025-04-20T14:09:45Z</time>
      </trkpt>
      <trkpt lat="47.82037" lon="2.32937">
        <ele>109</ele>
        <time>2025-04-20T14:09:52Z</time>
      </trkpt>
      <trkpt lat="47.8206" lon="2.32926">
        <ele>108</ele>
        <time>2025-04-20T14:09:56Z</time>
      </trkpt>
      <trkpt lat="47.82081" lon="2.3291">
        <ele>107</ele>
        <time>2025-04-20T14:10:00Z</time>
      </trkpt>
      <trkpt lat="47.82106" lon="2.32887">
        <ele>108</ele>
        <time>2025-04-20T14:10:05Z</time>
      </trkpt>
      <trkpt lat="47.82171" lon="2.32991">
        <ele>110</ele>
        <time>2025-04-20T14:10:22Z</time>
      </trkpt>
      <trkpt lat="47.82219" lon="2.33067">
        <ele>109</ele>
        <time>2025-04-20T14:10:35Z</time>
      </trkpt>
      <trkpt lat="47.82222" lon="2.33072">
        <ele>109</ele>
        <time>2025-04-20T14:10:36Z</time>
      </trkpt>
      <trkpt lat="47.82226" lon="2.33078">
        <ele>109</ele>
        <time>2025-04-20T14:10:37Z</time>
      </trkpt>
      <trkpt lat="47.82275" lon="2.33154">
        <ele>108</ele>
        <time>2025-04-20T14:10:49Z</time>
      </trkpt>
      <trkpt lat="47.82284" lon="2.33165">
        <ele>108</ele>
        <time>2025-04-20T14:10:51Z</time>
      </trkpt>
      <trkpt lat="47.82295" lon="2.33175">
        <ele>108</ele>
        <time>2025-04-20T14:10:54Z</time>
      </trkpt>
      <trkpt lat="47.8232" lon="2.33192">
        <ele>109</ele>
        <time>2025-04-20T14:10:59Z</time>
      </trkpt>
      <trkpt lat="47.82392" lon="2.33236">
        <ele>108</ele>
        <time>2025-04-20T14:11:12Z</time>
      </trkpt>
      <trkpt lat="47.82403" lon="2.33247">
        <ele>108</ele>
        <time>2025-04-20T14:11:15Z</time>
      </trkpt>
      <trkpt lat="47.82416" lon="2.33262">
        <ele>108</ele>
        <time>2025-04-20T14:11:18Z</time>
      </trkpt>
      <trkpt lat="47.82428" lon="2.33283">
        <ele>108</ele>
        <time>2025-04-20T14:11:21Z</time>
      </trkpt>
      <trkpt lat="47.82467" lon="2.33373">
        <ele>108</ele>
        <time>2025-04-20T14:11:34Z</time>
      </trkpt>
      <trkpt lat="47.82471" lon="2.33382">
        <ele>108</ele>
        <time>2025-04-20T14:11:35Z</time>
      </trkpt>
      <trkpt lat="47.82473" lon="2.33389">
        <ele>108</ele>
        <time>2025-04-20T14:11:36Z</time>
      </trkpt>
      <trkpt lat="47.82472" lon="2.33396">
        <ele>108</ele>
        <time>2025-04-20T14:11:37Z</time>
      </trkpt>
      <trkpt lat="47.82469" lon="2.33404">
        <ele>108</ele>
        <time>2025-04-20T14:11:38Z</time>
      </trkpt>
      <trkpt lat="47.82464" lon="2.33412">
        <ele>108</ele>
        <time>2025-04-20T14:11:39Z</time>
      </trkpt>
      <trkpt lat="47.82449" lon="2.33423">
        <ele>109</ele>
        <time>2025-04-20T14:11:42Z</time>
      </trkpt>
      <trkpt lat="47.8232" lon="2.3352">
        <ele>110</ele>
        <time>2025-04-20T14:12:08Z</time>
      </trkpt>
      <trkpt lat="47.82309" lon="2.33531">
        <ele>110</ele>
        <time>2025-04-20T14:12:10Z</time>
      </trkpt>
      <trkpt lat="47.82297" lon="2.33546">
        <ele>111</ele>
        <time>2025-04-20T14:12:13Z</time>
      </trkpt>
      <trkpt lat="47.82244" lon="2.33629">
        <ele>109</ele>
        <time>2025-04-20T14:12:27Z</time>
      </trkpt>
      <trkpt lat="47.82108" lon="2.33857">
        <ele>108</ele>
        <time>2025-04-20T14:13:03Z</time>
      </trkpt>
      <trkpt lat="47.8207" lon="2.33925">
        <ele>109</ele>
        <time>2025-04-20T14:13:14Z</time>
      </trkpt>
      <trkpt lat="47.82049" lon="2.3397">
        <ele>109</ele>
        <time>2025-04-20T14:13:20Z</time>
      </trkpt>
      <trkpt lat="47.82027" lon="2.34022">
        <ele>109</ele>
        <time>2025-04-20T14:13:28Z</time>
      </trkpt>
      <trkpt lat="47.82015" lon="2.34059">
        <ele>110</ele>
        <time>2025-04-20T14:13:33Z</time>
      </trkpt>
      <trkpt lat="47.82005" lon="2.34094">
        <ele>110</ele>
        <time>2025-04-20T14:13:37Z</time>
      </trkpt>
      <trkpt lat="47.81983" lon="2.34197">
        <ele>110</ele>
        <time>2025-04-20T14:13:50Z</time>
      </trkpt>
      <trkpt lat="47.81979" lon="2.34215">
        <ele>110</ele>
        <time>2025-04-20T14:13:52Z</time>
      </trkpt>
      <trkpt lat="47.81973" lon="2.34233">
        <ele>110</ele>
        <time>2025-04-20T14:13:55Z</time>
      </trkpt>
      <trkpt lat="47.81949" lon="2.34297">
        <ele>110</ele>
        <time>2025-04-20T14:14:03Z</time>
      </trkpt>
      <trkpt lat="47.81893" lon="2.34434">
        <ele>109</ele>
        <time>2025-04-20T14:14:23Z</time>
      </trkpt>
      <trkpt lat="47.81881" lon="2.34461">
        <ele>109</ele>
        <time>2025-04-20T14:14:26Z</time>
      </trkpt>
      <trkpt lat="47.81851" lon="2.34518">
        <ele>109</ele>
        <time>2025-04-20T14:14:35Z</time>
      </trkpt>
      <trkpt lat="47.81849" lon="2.34522">
        <ele>109</ele>
        <time>2025-04-20T14:14:36Z</time>
      </trkpt>
      <trkpt lat="47.81864" lon="2.34532">
        <ele>109</ele>
        <time>2025-04-20T14:14:39Z</time>
      </trkpt>
      <trkpt lat="47.81898" lon="2.3455">
        <ele>110</ele>
        <time>2025-04-20T14:14:45Z</time>
      </trkpt>
      <trkpt lat="47.8194" lon="2.34565">
        <ele>110</ele>
        <time>2025-04-20T14:14:53Z</time>
      </trkpt>
      <trkpt lat="47.81969" lon="2.3457">
        <ele>109</ele>
        <time>2025-04-20T14:14:58Z</time>
      </trkpt>
      <trkpt lat="47.81999" lon="2.34571">
        <ele>108</ele>
        <time>2025-04-20T14:15:03Z</time>
      </trkpt>
      <trkpt lat="47.82078" lon="2.34586">
        <ele>109</ele>
        <time>2025-04-20T14:15:17Z</time>
      </trkpt>
      <trkpt lat="47.82162" lon="2.34595">
        <ele>109</ele>
        <time>2025-04-20T14:15:32Z</time>
      </trkpt>
      <trkpt lat="47.82215" lon="2.34604">
        <ele>109</ele>
        <time>2025-04-20T14:15:42Z</time>
      </trkpt>
      <trkpt lat="47.8225" lon="2.3461">
        <ele>109</ele>
        <time>2025-04-20T14:15:48Z</time>
      </trkpt>
      <trkpt lat="47.82295" lon="2.34613">
        <ele>110</ele>
        <time>2025-04-20T14:15:56Z</time>
      </trkpt>
      <trkpt lat="47.8232" lon="2.34612">
        <ele>110</ele>
        <time>2025-04-20T14:16:01Z</time>
      </trkpt>
      <trkpt lat="47.82364" lon="2.34604">
        <ele>110</ele>
        <time>2025-04-20T14:16:09Z</time>
      </trkpt>
      <trkpt lat="47.8239" lon="2.34602">
        <ele>111</ele>
        <time>2025-04-20T14:16:13Z</time>
      </trkpt>
      <trkpt lat="47.8243" lon="2.34602">
        <ele>111</ele>
        <time>2025-04-20T14:16:20Z</time>
      </trkpt>
      <trkpt lat="47.82473" lon="2.34604">
        <ele>110</ele>
        <time>2025-04-20T14:16:28Z</time>
      </trkpt>
      <trkpt lat="47.82493" lon="2.34601">
        <ele>109</ele>
        <time>2025-04-20T14:16:31Z</time>
      </trkpt>
      <trkpt lat="47.82513" lon="2.34601">
        <ele>109</ele>
        <time>2025-04-20T14:16:35Z</time>
      </trkpt>
      <trkpt lat="47.8253" lon="2.34603">
        <ele>110</ele>
        <time>2025-04-20T14:16:38Z</time>
      </trkpt>
      <trkpt lat="47.82549" lon="2.34605">
        <ele>110</ele>
        <time>2025-04-20T14:16:41Z</time>
      </trkpt>
      <trkpt lat="47.82567" lon="2.34602">
        <ele>110</ele>
        <time>2025-04-20T14:16:45Z</time>
      </trkpt>
      <trkpt lat="47.82573" lon="2.346">
        <ele>110</ele>
        <time>2025-04-20T14:16:46Z</time>
      </trkpt>
      <trkpt lat="47.8261" lon="2.34584">
        <ele>109</ele>
        <time>2025-04-20T14:16:53Z</time>
      </trkpt>
      <trkpt lat="47.82709" lon="2.34569">
        <ele>108</ele>
        <time>2025-04-20T14:17:10Z</time>
      </trkpt>
      <trkpt lat="47.82734" lon="2.34563">
        <ele>108</ele>
        <time>2025-04-20T14:17:15Z</time>
      </trkpt>
      <trkpt lat="47.82757" lon="2.34555">
        <ele>108</ele>
        <time>2025-04-20T14:17:19Z</time>
      </trkpt>
      <trkpt lat="47.82775" lon="2.34544">
        <ele>108</ele>
        <time>2025-04-20T14:17:23Z</time>
      </trkpt>
      <trkpt lat="47.82796" lon="2.34535">
        <ele>108</ele>
        <time>2025-04-20T14:17:26Z</time>
      </trkpt>
      <trkpt lat="47.82827" lon="2.34524">
        <ele>108</ele>
        <time>2025-04-20T14:17:32Z</time>
      </trkpt>
      <trkpt lat="47.82838" lon="2.34523">
        <ele>108</ele>
        <time>2025-04-20T14:17:34Z</time>
      </trkpt>
      <trkpt lat="47.82849" lon="2.34525">
        <ele>109</ele>
        <time>2025-04-20T14:17:36Z</time>
      </trkpt>
      <trkpt lat="47.8286" lon="2.34529">
        <ele>109</ele>
        <time>2025-04-20T14:17:38Z</time>
      </trkpt>
      <trkpt lat="47.82927" lon="2.34563">
        <ele>109</ele>
        <time>2025-04-20T14:17:51Z</time>
      </trkpt>
      <trkpt lat="47.82937" lon="2.34568">
        <ele>109</ele>
        <time>2025-04-20T14:17:52Z</time>
      </trkpt>
      <trkpt lat="47.8294" lon="2.3457">
        <ele>109</ele>
        <time>2025-04-20T14:17:53Z</time>
      </trkpt>
      <trkpt lat="47.83037" lon="2.34616">
        <ele>112</ele>
        <time>2025-04-20T14:18:11Z</time>
      </trkpt>
      <trkpt lat="47.83073" lon="2.34634">
        <ele>113</ele>
        <time>2025-04-20T14:18:18Z</time>
      </trkpt>
      <trkpt lat="47.8308" lon="2.34611">
        <ele>113</ele>
        <time>2025-04-20T14:18:21Z</time>
      </trkpt>
      <trkpt lat="47.83093" lon="2.34568">
        <ele>113</ele>
        <time>2025-04-20T14:18:27Z</time>
      </trkpt>
      <trkpt lat="47.83122" lon="2.34486">
        <ele>112</ele>
        <time>2025-04-20T14:18:38Z</time>
      </trkpt>
      <trkpt lat="47.8314" lon="2.34441">
        <ele>112</ele>
        <time>2025-04-20T14:18:44Z</time>
      </trkpt>
      <trkpt lat="47.83147" lon="2.34426">
        <ele>112</ele>
        <time>2025-04-20T14:18:46Z</time>
      </trkpt>
      <trkpt lat="47.83172" lon="2.34394">
        <ele>112</ele>
        <time>2025-04-20T14:18:52Z</time>
      </trkpt>
      <trkpt lat="47.83179" lon="2.34381">
        <ele>112</ele>
        <time>2025-04-20T14:18:54Z</time>
      </trkpt>
      <trkpt lat="47.83182" lon="2.34368">
        <ele>112</ele>
        <time>2025-04-20T14:18:56Z</time>
      </trkpt>
      <trkpt lat="47.83183" lon="2.34355">
        <ele>112</ele>
        <time>2025-04-20T14:18:57Z</time>
      </trkpt>
      <trkpt lat="47.83181" lon="2.34278">
        <ele>111</ele>
        <time>2025-04-20T14:19:06Z</time>
      </trkpt>
      <trkpt lat="47.83184" lon="2.34254">
        <ele>112</ele>
        <time>2025-04-20T14:19:09Z</time>
      </trkpt>
      <trkpt lat="47.832" lon="2.34201">
        <ele>112</ele>
        <time>2025-04-20T14:19:16Z</time>
      </trkpt>
      <trkpt lat="47.83205" lon="2.34182">
        <ele>112</ele>
        <time>2025-04-20T14:19:19Z</time>
      </trkpt>
      <trkpt lat="47.83208" lon="2.34168">
        <ele>112</ele>
        <time>2025-04-20T14:19:20Z</time>
      </trkpt>
      <trkpt lat="47.83217" lon="2.34129">
        <ele>111</ele>
        <time>2025-04-20T14:19:25Z</time>
      </trkpt>
      <trkpt lat="47.83223" lon="2.341">
        <ele>111</ele>
        <time>2025-04-20T14:19:29Z</time>
      </trkpt>
      <trkpt lat="47.83221" lon="2.34083">
        <ele>111</ele>
        <time>2025-04-20T14:19:31Z</time>
      </trkpt>
      <trkpt lat="47.83218" lon="2.34073">
        <ele>111</ele>
        <time>2025-04-20T14:19:32Z</time>
      </trkpt>
      <trkpt lat="47.8324" lon="2.34061">
        <ele>112</ele>
        <time>2025-04-20T14:19:37Z</time>
      </trkpt>
      <trkpt lat="47.83251" lon="2.34059">
        <ele>112</ele>
        <time>2025-04-20T14:19:38Z</time>
      </trkpt>
      <trkpt lat="47.83267" lon="2.34061">
        <ele>112</ele>
        <time>2025-04-20T14:19:41Z</time>
      </trkpt>
      <trkpt lat="47.83321" lon="2.34078">
        <ele>114</ele>
        <time>2025-04-20T14:19:51Z</time>
      </trkpt>
      <trkpt lat="47.83345" lon="2.34086">
        <ele>115</ele>
        <time>2025-04-20T14:19:56Z</time>
      </trkpt>
      <trkpt lat="47.83361" lon="2.34086">
        <ele>116</ele>
        <time>2025-04-20T14:19:58Z</time>
      </trkpt>
      <trkpt lat="47.83406" lon="2.34083">
        <ele>118</ele>
        <time>2025-04-20T14:20:06Z</time>
      </trkpt>
      <trkpt lat="47.83433" lon="2.34084">
        <ele>120</ele>
        <time>2025-04-20T14:20:11Z</time>
      </trkpt>
      <trkpt lat="47.83453" lon="2.34089">
        <ele>121</ele>
        <time>2025-04-20T14:20:15Z</time>
      </trkpt>
      <trkpt lat="47.83471" lon="2.34092">
        <ele>122</ele>
        <time>2025-04-20T14:20:18Z</time>
      </trkpt>
      <trkpt lat="47.83531" lon="2.34115">
        <ele>124</ele>
        <time>2025-04-20T14:20:29Z</time>
      </trkpt>
      <trkpt lat="47.83579" lon="2.34123">
        <ele>126</ele>
        <time>2025-04-20T14:20:38Z</time>
      </trkpt>
      <trkpt lat="47.83618" lon="2.34133">
        <ele>125</ele>
        <time>2025-04-20T14:20:45Z</time>
      </trkpt>
      <trkpt lat="47.83643" lon="2.34143">
        <ele>125</ele>
        <time>2025-04-20T14:20:49Z</time>
      </trkpt>
      <trkpt lat="47.83649" lon="2.34143">
        <ele>125</ele>
        <time>2025-04-20T14:20:50Z</time>
      </trkpt>
      <trkpt lat="47.83655" lon="2.34142">
        <ele>124</ele>
        <time>2025-04-20T14:20:51Z</time>
      </trkpt>
      <trkpt lat="47.83661" lon="2.34136">
        <ele>124</ele>
        <time>2025-04-20T14:20:53Z</time>
      </trkpt>
      <trkpt lat="47.83665" lon="2.34126">
        <ele>124</ele>
        <time>2025-04-20T14:20:54Z</time>
      </trkpt>
      <trkpt lat="47.83667" lon="2.34116">
        <ele>123</ele>
        <time>2025-04-20T14:20:55Z</time>
      </trkpt>
      <trkpt lat="47.83668" lon="2.34087">
        <ele>122</ele>
        <time>2025-04-20T14:20:59Z</time>
      </trkpt>
      <trkpt lat="47.83673" lon="2.34029">
        <ele>122</ele>
        <time>2025-04-20T14:21:06Z</time>
      </trkpt>
      <trkpt lat="47.83692" lon="2.34033">
        <ele>123</ele>
        <time>2025-04-20T14:21:09Z</time>
      </trkpt>
      <trkpt lat="47.83741" lon="2.3406">
        <ele>125</ele>
        <time>2025-04-20T14:21:19Z</time>
      </trkpt>
      <trkpt lat="47.83761" lon="2.34072">
        <ele>125</ele>
        <time>2025-04-20T14:21:22Z</time>
      </trkpt>
      <trkpt lat="47.83778" lon="2.34085">
        <ele>125</ele>
        <time>2025-04-20T14:21:26Z</time>
      </trkpt>
      <trkpt lat="47.83806" lon="2.34112">
        <ele>125</ele>
        <time>2025-04-20T14:21:32Z</time>
      </trkpt>
      <trkpt lat="47.83846" lon="2.34162">
        <ele>124</ele>
        <time>2025-04-20T14:21:41Z</time>
      </trkpt>
      <trkpt lat="47.83856" lon="2.34166">
        <ele>124</ele>
        <time>2025-04-20T14:21:43Z</time>
      </trkpt>
      <trkpt lat="47.83859" lon="2.34174">
        <ele>124</ele>
        <time>2025-04-20T14:21:44Z</time>
      </trkpt>
      <trkpt lat="47.83866" lon="2.34182">
        <ele>123</ele>
        <time>2025-04-20T14:21:45Z</time>
      </trkpt>
      <trkpt lat="47.83882" lon="2.34198">
        <ele>123</ele>
        <time>2025-04-20T14:21:49Z</time>
      </trkpt>
      <trkpt lat="47.83887" lon="2.34202">
        <ele>123</ele>
        <time>2025-04-20T14:21:50Z</time>
      </trkpt>
      <trkpt lat="47.83951" lon="2.34246">
        <ele>124</ele>
        <time>2025-04-20T14:22:02Z</time>
      </trkpt>
      <trkpt lat="47.8397" lon="2.34261">
        <ele>124</ele>
        <time>2025-04-20T14:22:06Z</time>
      </trkpt>
      <trkpt lat="47.83999" lon="2.34286">
        <ele>124</ele>
        <time>2025-04-20T14:22:12Z</time>
      </trkpt>
      <trkpt lat="47.84031" lon="2.34312">
        <ele>125</ele>
        <time>2025-04-20T14:22:19Z</time>
      </trkpt>
      <trkpt lat="47.84166" lon="2.34418">
        <ele>128</ele>
        <time>2025-04-20T14:22:46Z</time>
      </trkpt>
      <trkpt lat="47.84195" lon="2.34448">
        <ele>126</ele>
        <time>2025-04-20T14:22:52Z</time>
      </trkpt>
      <trkpt lat="47.84219" lon="2.3448">
        <ele>126</ele>
        <time>2025-04-20T14:22:58Z</time>
      </trkpt>
      <trkpt lat="47.84248" lon="2.34526">
        <ele>126</ele>
        <time>2025-04-20T14:23:05Z</time>
      </trkpt>
      <trkpt lat="47.84299" lon="2.34605">
        <ele>125</ele>
        <time>2025-04-20T14:23:19Z</time>
      </trkpt>
      <trkpt lat="47.84315" lon="2.34629">
        <ele>124</ele>
        <time>2025-04-20T14:23:23Z</time>
      </trkpt>
      <trkpt lat="47.84332" lon="2.34656">
        <ele>123</ele>
        <time>2025-04-20T14:23:27Z</time>
      </trkpt>
      <trkpt lat="47.8436" lon="2.34696">
        <ele>124</ele>
        <time>2025-04-20T14:23:34Z</time>
      </trkpt>
      <trkpt lat="47.84371" lon="2.34711">
        <ele>124</ele>
        <time>2025-04-20T14:23:37Z</time>
      </trkpt>
      <trkpt lat="47.84394" lon="2.34738">
        <ele>125</ele>
        <time>2025-04-20T14:23:42Z</time>
      </trkpt>
      <trkpt lat="47.84403" lon="2.34747">
        <ele>125</ele>
        <time>2025-04-20T14:23:44Z</time>
      </trkpt>
      <trkpt lat="47.84415" lon="2.34758">
        <ele>125</ele>
        <time>2025-04-20T14:23:46Z</time>
      </trkpt>
      <trkpt lat="47.8445" lon="2.34785">
        <ele>124</ele>
        <time>2025-04-20T14:23:53Z</time>
      </trkpt>
      <trkpt lat="47.84459" lon="2.34794">
        <ele>124</ele>
        <time>2025-04-20T14:23:55Z</time>
      </trkpt>
      <trkpt lat="47.84464" lon="2.34803">
        <ele>124</ele>
        <time>2025-04-20T14:23:57Z</time>
      </trkpt>
      <trkpt lat="47.84466" lon="2.34815">
        <ele>124</ele>
        <time>2025-04-20T14:23:58Z</time>
      </trkpt>
      <trkpt lat="47.84469" lon="2.34872">
        <ele>124</ele>
        <time>2025-04-20T14:24:05Z</time>
      </trkpt>
      <trkpt lat="47.84474" lon="2.34896">
        <ele>124</ele>
        <time>2025-04-20T14:24:08Z</time>
      </trkpt>
      <trkpt lat="47.84505" lon="2.34998">
        <ele>125</ele>
        <time>2025-04-20T14:24:21Z</time>
      </trkpt>
      <trkpt lat="47.84513" lon="2.35021">
        <ele>125</ele>
        <time>2025-04-20T14:24:24Z</time>
      </trkpt>
      <trkpt lat="47.8452" lon="2.35039">
        <ele>125</ele>
        <time>2025-04-20T14:24:27Z</time>
      </trkpt>
      <trkpt lat="47.84544" lon="2.35078">
        <ele>125</ele>
        <time>2025-04-20T14:24:33Z</time>
      </trkpt>
      <trkpt lat="47.84598" lon="2.35169">
        <ele>127</ele>
        <time>2025-04-20T14:24:48Z</time>
      </trkpt>
      <trkpt lat="47.84608" lon="2.35195">
        <ele>126</ele>
        <time>2025-04-20T14:24:51Z</time>
      </trkpt>
      <trkpt lat="47.84642" lon="2.35319">
        <ele>124</ele>
        <time>2025-04-20T14:25:07Z</time>
      </trkpt>
      <trkpt lat="47.84654" lon="2.35354">
        <ele>124</ele>
        <time>2025-04-20T14:25:12Z</time>
      </trkpt>
      <trkpt lat="47.84704" lon="2.35482">
        <ele>123</ele>
        <time>2025-04-20T14:25:30Z</time>
      </trkpt>
      <trkpt lat="47.84763" lon="2.35626">
        <ele>125</ele>
        <time>2025-04-20T14:25:50Z</time>
      </trkpt>
      <trkpt lat="47.84839" lon="2.35813">
        <ele>127</ele>
        <time>2025-04-20T14:26:16Z</time>
      </trkpt>
      <trkpt lat="47.84927" lon="2.3602">
        <ele>127</ele>
        <time>2025-04-20T14:26:45Z</time>
      </trkpt>
      <trkpt lat="47.84945" lon="2.36066">
        <ele>128</ele>
        <time>2025-04-20T14:26:51Z</time>
      </trkpt>
      <trkpt lat="47.84956" lon="2.36103">
        <ele>128</ele>
        <time>2025-04-20T14:26:56Z</time>
      </trkpt>
      <trkpt lat="47.85001" lon="2.36294">
        <ele>127</ele>
        <time>2025-04-20T14:27:20Z</time>
      </trkpt>
      <trkpt lat="47.85038" lon="2.36452">
        <ele>127</ele>
        <time>2025-04-20T14:27:40Z</time>
      </trkpt>
      <trkpt lat="47.85046" lon="2.36483">
        <ele>126</ele>
        <time>2025-04-20T14:27:44Z</time>
      </trkpt>
      <trkpt lat="47.85051" lon="2.36496">
        <ele>126</ele>
        <time>2025-04-20T14:27:46Z</time>
      </trkpt>
      <trkpt lat="47.85055" lon="2.36503">
        <ele>126</ele>
        <time>2025-04-20T14:27:47Z</time>
      </trkpt>
      <trkpt lat="47.85062" lon="2.36511">
        <ele>126</ele>
        <time>2025-04-20T14:27:49Z</time>
      </trkpt>
      <trkpt lat="47.85062" lon="2.36514">
        <ele>126</ele>
        <time>2025-04-20T14:27:49Z</time>
      </trkpt>
      <trkpt lat="47.85063" lon="2.36518">
        <ele>126</ele>
        <time>2025-04-20T14:27:50Z</time>
      </trkpt>
      <trkpt lat="47.85064" lon="2.3652">
        <ele>126</ele>
        <time>2025-04-20T14:27:50Z</time>
      </trkpt>
      <trkpt lat="47.85067" lon="2.36522">
        <ele>126</ele>
        <time>2025-04-20T14:27:51Z</time>
      </trkpt>
      <trkpt lat="47.85069" lon="2.36522">
        <ele>126</ele>
        <time>2025-04-20T14:27:51Z</time>
      </trkpt>
      <trkpt lat="47.85074" lon="2.36549">
        <ele>126</ele>
        <time>2025-04-20T14:27:54Z</time>
      </trkpt>
      <trkpt lat="47.85083" lon="2.36621">
        <ele>127</ele>
        <time>2025-04-20T14:28:03Z</time>
      </trkpt>
      <trkpt lat="47.85088" lon="2.3667">
        <ele>128</ele>
        <time>2025-04-20T14:28:09Z</time>
      </trkpt>
      <trkpt lat="47.85089" lon="2.36695">
        <ele>129</ele>
        <time>2025-04-20T14:28:12Z</time>
      </trkpt>
      <trkpt lat="47.85091" lon="2.36735">
        <ele>130</ele>
        <time>2025-04-20T14:28:17Z</time>
      </trkpt>
      <trkpt lat="47.8509" lon="2.36752">
        <ele>130</ele>
        <time>2025-04-20T14:28:19Z</time>
      </trkpt>
      <trkpt lat="47.85087" lon="2.36775">
        <ele>129</ele>
        <time>2025-04-20T14:28:22Z</time>
      </trkpt>
      <trkpt lat="47.8507" lon="2.36877">
        <ele>126</ele>
        <time>2025-04-20T14:28:34Z</time>
      </trkpt>
      <trkpt lat="47.85065" lon="2.36917">
        <ele>125</ele>
        <time>2025-04-20T14:28:39Z</time>
      </trkpt>
      <trkpt lat="47.85062" lon="2.36941">
        <ele>125</ele>
        <time>2025-04-20T14:28:42Z</time>
      </trkpt>
      <trkpt lat="47.8505" lon="2.37076">
        <ele>124</ele>
        <time>2025-04-20T14:28:58Z</time>
      </trkpt>
      <trkpt lat="47.85047" lon="2.37135">
        <ele>123</ele>
        <time>2025-04-20T14:29:05Z</time>
      </trkpt>
      <trkpt lat="47.85048" lon="2.37209">
        <ele>122</ele>
        <time>2025-04-20T14:29:14Z</time>
      </trkpt>
      <trkpt lat="47.85052" lon="2.37324">
        <ele>123</ele>
        <time>2025-04-20T14:29:28Z</time>
      </trkpt>
      <trkpt lat="47.85054" lon="2.37347">
        <ele>123</ele>
        <time>2025-04-20T14:29:31Z</time>
      </trkpt>
      <trkpt lat="47.85055" lon="2.37355">
        <ele>123</ele>
        <time>2025-04-20T14:29:32Z</time>
      </trkpt>
      <trkpt lat="47.85057" lon="2.37366">
        <ele>123</ele>
        <time>2025-04-20T14:29:33Z</time>
      </trkpt>
      <trkpt lat="47.85077" lon="2.37488">
        <ele>123</ele>
        <time>2025-04-20T14:29:48Z</time>
      </trkpt>
      <trkpt lat="47.85085" lon="2.37537">
        <ele>124</ele>
        <time>2025-04-20T14:29:54Z</time>
      </trkpt>
      <trkpt lat="47.85093" lon="2.37598">
        <ele>125</ele>
        <time>2025-04-20T14:30:01Z</time>
      </trkpt>
      <trkpt lat="47.85093" lon="2.37604">
        <ele>124</ele>
        <time>2025-04-20T14:30:02Z</time>
      </trkpt>
      <trkpt lat="47.85098" lon="2.37637">
        <ele>124</ele>
        <time>2025-04-20T14:30:06Z</time>
      </trkpt>
      <trkpt lat="47.85103" lon="2.37694">
        <ele>124</ele>
        <time>2025-04-20T14:30:13Z</time>
      </trkpt>
      <trkpt lat="47.85104" lon="2.37706">
        <ele>124</ele>
        <time>2025-04-20T14:30:14Z</time>
      </trkpt>
      <trkpt lat="47.85106" lon="2.37725">
        <ele>123</ele>
        <time>2025-04-20T14:30:17Z</time>
      </trkpt>
      <trkpt lat="47.85111" lon="2.37776">
        <ele>123</ele>
        <time>2025-04-20T14:30:23Z</time>
      </trkpt>
      <trkpt lat="47.85112" lon="2.37785">
        <ele>123</ele>
        <time>2025-04-20T14:30:24Z</time>
      </trkpt>
      <trkpt lat="47.85121" lon="2.37884">
        <ele>122</ele>
        <time>2025-04-20T14:30:36Z</time>
      </trkpt>
      <trkpt lat="47.85123" lon="2.37917">
        <ele>121</ele>
        <time>2025-04-20T14:30:40Z</time>
      </trkpt>
      <trkpt lat="47.85123" lon="2.37943">
        <ele>121</ele>
        <time>2025-04-20T14:30:43Z</time>
      </trkpt>
      <trkpt lat="47.85122" lon="2.37954">
        <ele>121</ele>
        <time>2025-04-20T14:30:44Z</time>
      </trkpt>
      <trkpt lat="47.85122" lon="2.37975">
        <ele>121</ele>
        <time>2025-04-20T14:30:47Z</time>
      </trkpt>
      <trkpt lat="47.85121" lon="2.37982">
        <ele>121</ele>
        <time>2025-04-20T14:30:48Z</time>
      </trkpt>
      <trkpt lat="47.85118" lon="2.37983">
        <ele>121</ele>
        <time>2025-04-20T14:30:48Z</time>
      </trkpt>
      <trkpt lat="47.85115" lon="2.37985">
        <ele>121</ele>
        <time>2025-04-20T14:30:49Z</time>
      </trkpt>
      <trkpt lat="47.85113" lon="2.37989">
        <ele>121</ele>
        <time>2025-04-20T14:30:49Z</time>
      </trkpt>
      <trkpt lat="47.85112" lon="2.37996">
        <ele>121</ele>
        <time>2025-04-20T14:30:50Z</time>
      </trkpt>
      <trkpt lat="47.85113" lon="2.38003">
        <ele>121</ele>
        <time>2025-04-20T14:30:51Z</time>
      </trkpt>
      <trkpt lat="47.85115" lon="2.38007">
        <ele>121</ele>
        <time>2025-04-20T14:30:52Z</time>
      </trkpt>
      <trkpt lat="47.85117" lon="2.38009">
        <ele>121</ele>
        <time>2025-04-20T14:30:52Z</time>
      </trkpt>
      <trkpt lat="47.85123" lon="2.3801">
        <ele>122</ele>
        <time>2025-04-20T14:30:53Z</time>
      </trkpt>
      <trkpt lat="47.85122" lon="2.38017">
        <ele>122</ele>
        <time>2025-04-20T14:30:54Z</time>
      </trkpt>
      <trkpt lat="47.85122" lon="2.38031">
        <ele>122</ele>
        <time>2025-04-20T14:30:56Z</time>
      </trkpt>
      <trkpt lat="47.85122" lon="2.38036">
        <ele>122</ele>
        <time>2025-04-20T14:30:56Z</time>
      </trkpt>
      <trkpt lat="47.85122" lon="2.38043">
        <ele>122</ele>
        <time>2025-04-20T14:30:57Z</time>
      </trkpt>
      <trkpt lat="47.85122" lon="2.38062">
        <ele>123</ele>
        <time>2025-04-20T14:30:59Z</time>
      </trkpt>
      <trkpt lat="47.85154" lon="2.38063">
        <ele>123</ele>
        <time>2025-04-20T14:31:05Z</time>
      </trkpt>
      <trkpt lat="47.85158" lon="2.38064">
        <ele>124</ele>
        <time>2025-04-20T14:31:06Z</time>
      </trkpt>
      <trkpt lat="47.85163" lon="2.38068">
        <ele>124</ele>
        <time>2025-04-20T14:31:07Z</time>
      </trkpt>
      <trkpt lat="47.85167" lon="2.38075">
        <ele>124</ele>
        <time>2025-04-20T14:31:08Z</time>
      </trkpt>
      <trkpt lat="47.85203" lon="2.38181">
        <ele>125</ele>
        <time>2025-04-20T14:31:22Z</time>
      </trkpt>
      <trkpt lat="47.8524" lon="2.3826">
        <ele>125</ele>
        <time>2025-04-20T14:31:34Z</time>
      </trkpt>
      <trkpt lat="47.85258" lon="2.38293">
        <ele>124</ele>
        <time>2025-04-20T14:31:39Z</time>
      </trkpt>
      <trkpt lat="47.85272" lon="2.38316">
        <ele>124</ele>
        <time>2025-04-20T14:31:42Z</time>
      </trkpt>
      <trkpt lat="47.8529" lon="2.38337">
        <ele>124</ele>
        <time>2025-04-20T14:31:46Z</time>
      </trkpt>
      <trkpt lat="47.85315" lon="2.38362">
        <ele>124</ele>
        <time>2025-04-20T14:31:52Z</time>
      </trkpt>
      <trkpt lat="47.8536" lon="2.38396">
        <ele>124</ele>
        <time>2025-04-20T14:32:01Z</time>
      </trkpt>
      <trkpt lat="47.85452" lon="2.38464">
        <ele>126</ele>
        <time>2025-04-20T14:32:19Z</time>
      </trkpt>
      <trkpt lat="47.85531" lon="2.38526">
        <ele>127</ele>
        <time>2025-04-20T14:32:35Z</time>
      </trkpt>
      <trkpt lat="47.85546" lon="2.3854">
        <ele>126</ele>
        <time>2025-04-20T14:32:38Z</time>
      </trkpt>
      <trkpt lat="47.85569" lon="2.38568">
        <ele>126</ele>
        <time>2025-04-20T14:32:43Z</time>
      </trkpt>
      <trkpt lat="47.8559" lon="2.38598">
        <ele>126</ele>
        <time>2025-04-20T14:32:49Z</time>
      </trkpt>
      <trkpt lat="47.85604" lon="2.3862">
        <ele>126</ele>
        <time>2025-04-20T14:32:52Z</time>
      </trkpt>
      <trkpt lat="47.85634" lon="2.38676">
        <ele>126</ele>
        <time>2025-04-20T14:33:01Z</time>
      </trkpt>
      <trkpt lat="47.85651" lon="2.38707">
        <ele>127</ele>
        <time>2025-04-20T14:33:06Z</time>
      </trkpt>
      <trkpt lat="47.85668" lon="2.38745">
        <ele>126</ele>
        <time>2025-04-20T14:33:11Z</time>
      </trkpt>
      <trkpt lat="47.85675" lon="2.3877">
        <ele>127</ele>
        <time>2025-04-20T14:33:14Z</time>
      </trkpt>
      <trkpt lat="47.85684" lon="2.38813">
        <ele>128</ele>
        <time>2025-04-20T14:33:20Z</time>
      </trkpt>
      <trkpt lat="47.85687" lon="2.3882">
        <ele>128</ele>
        <time>2025-04-20T14:33:21Z</time>
      </trkpt>
      <trkpt lat="47.85693" lon="2.38833">
        <ele>129</ele>
        <time>2025-04-20T14:33:22Z</time>
      </trkpt>
      <trkpt lat="47.85708" lon="2.38861">
        <ele>129</ele>
        <time>2025-04-20T14:33:27Z</time>
      </trkpt>
      <trkpt lat="47.85722" lon="2.38881">
        <ele>129</ele>
        <time>2025-04-20T14:33:30Z</time>
      </trkpt>
      <trkpt lat="47.85786" lon="2.38955">
        <ele>128</ele>
        <time>2025-04-20T14:33:45Z</time>
      </trkpt>
      <trkpt lat="47.85821" lon="2.39002">
        <ele>128</ele>
        <time>2025-04-20T14:33:53Z</time>
      </trkpt>
      <trkpt lat="47.85864" lon="2.39073">
        <ele>130</ele>
        <time>2025-04-20T14:34:04Z</time>
      </trkpt>
      <trkpt lat="47.85895" lon="2.39124">
        <ele>132</ele>
        <time>2025-04-20T14:34:13Z</time>
      </trkpt>
      <trkpt lat="47.85937" lon="2.39198">
        <ele>133</ele>
        <time>2025-04-20T14:34:24Z</time>
      </trkpt>
      <trkpt lat="47.86003" lon="2.3933">
        <ele>132</ele>
        <time>2025-04-20T14:34:44Z</time>
      </trkpt>
      <trkpt lat="47.86008" lon="2.39345">
        <ele>133</ele>
        <time>2025-04-20T14:34:46Z</time>
      </trkpt>
      <trkpt lat="47.86013" lon="2.39365">
        <ele>134</ele>
        <time>2025-04-20T14:34:48Z</time>
      </trkpt>
      <trkpt lat="47.86018" lon="2.39413">
        <ele>136</ele>
        <time>2025-04-20T14:34:54Z</time>
      </trkpt>
      <trkpt lat="47.86021" lon="2.39431">
        <ele>136</ele>
        <time>2025-04-20T14:34:56Z</time>
      </trkpt>
      <trkpt lat="47.86023" lon="2.39439">
        <ele>136</ele>
        <time>2025-04-20T14:34:57Z</time>
      </trkpt>
      <trkpt lat="47.86027" lon="2.39449">
        <ele>136</ele>
        <time>2025-04-20T14:34:59Z</time>
      </trkpt>
      <trkpt lat="47.86071" lon="2.39543">
        <ele>134</ele>
        <time>2025-04-20T14:35:12Z</time>
      </trkpt>
      <trkpt lat="47.86079" lon="2.39561">
        <ele>134</ele>
        <time>2025-04-20T14:35:15Z</time>
      </trkpt>
      <trkpt lat="47.86082" lon="2.39573">
        <ele>133</ele>
        <time>2025-04-20T14:35:17Z</time>
      </trkpt>
      <trkpt lat="47.86094" lon="2.39611">
        <ele>132</ele>
        <time>2025-04-20T14:35:22Z</time>
      </trkpt>
      <trkpt lat="47.86174" lon="2.39903">
        <ele>131</ele>
        <time>2025-04-20T14:35:59Z</time>
      </trkpt>
      <trkpt lat="47.86178" lon="2.39916">
        <ele>131</ele>
        <time>2025-04-20T14:36:01Z</time>
      </trkpt>
      <trkpt lat="47.86184" lon="2.39928">
        <ele>131</ele>
        <time>2025-04-20T14:36:03Z</time>
      </trkpt>
      <trkpt lat="47.86272" lon="2.40086">
        <ele>132</ele>
        <time>2025-04-20T14:36:27Z</time>
      </trkpt>
      <trkpt lat="47.86304" lon="2.40129">
        <ele>132</ele>
        <time>2025-04-20T14:36:35Z</time>
      </trkpt>
      <trkpt lat="47.86347" lon="2.40177">
        <ele>132</ele>
        <time>2025-04-20T14:36:44Z</time>
      </trkpt>
      <trkpt lat="47.86357" lon="2.40186">
        <ele>132</ele>
        <time>2025-04-20T14:36:47Z</time>
      </trkpt>
      <trkpt lat="47.86369" lon="2.40193">
        <ele>132</ele>
        <time>2025-04-20T14:36:49Z</time>
      </trkpt>
      <trkpt lat="47.86505" lon="2.40245">
        <ele>133</ele>
        <time>2025-04-20T14:37:14Z</time>
      </trkpt>
      <trkpt lat="47.86524" lon="2.4025">
        <ele>134</ele>
        <time>2025-04-20T14:37:17Z</time>
      </trkpt>
      <trkpt lat="47.86556" lon="2.40255">
        <ele>134</ele>
        <time>2025-04-20T14:37:23Z</time>
      </trkpt>
      <trkpt lat="47.86569" lon="2.40262">
        <ele>135</ele>
        <time>2025-04-20T14:37:25Z</time>
      </trkpt>
      <trkpt lat="47.86587" lon="2.40278">
        <ele>135</ele>
        <time>2025-04-20T14:37:29Z</time>
      </trkpt>
      <trkpt lat="47.86671" lon="2.40352">
        <ele>134</ele>
        <time>2025-04-20T14:37:47Z</time>
      </trkpt>
      <trkpt lat="47.86666" lon="2.40478">
        <ele>133</ele>
        <time>2025-04-20T14:38:02Z</time>
      </trkpt>
      <trkpt lat="47.86666" lon="2.40506">
        <ele>133</ele>
        <time>2025-04-20T14:38:05Z</time>
      </trkpt>
      <trkpt lat="47.86668" lon="2.40529">
        <ele>134</ele>
        <time>2025-04-20T14:38:08Z</time>
      </trkpt>
      <trkpt lat="47.86671" lon="2.40547">
        <ele>135</ele>
        <time>2025-04-20T14:38:10Z</time>
      </trkpt>
      <trkpt lat="47.86685" lon="2.40611">
        <ele>138</ele>
        <time>2025-04-20T14:38:18Z</time>
      </trkpt>
      <trkpt lat="47.86952" lon="2.41772">
        <ele>139</ele>
        <time>2025-04-20T14:40:44Z</time>
      </trkpt>
      <trkpt lat="47.86956" lon="2.41789">
        <ele>139</ele>
        <time>2025-04-20T14:40:47Z</time>
      </trkpt>
      <trkpt lat="47.87072" lon="2.42269">
        <ele>139</ele>
        <time>2025-04-20T14:41:48Z</time>
      </trkpt>
      <trkpt lat="47.87103" lon="2.42393">
        <ele>138</ele>
        <time>2025-04-20T14:42:03Z</time>
      </trkpt>
      <trkpt lat="47.87258" lon="2.43032">
        <ele>133</ele>
        <time>2025-04-20T14:43:24Z</time>
      </trkpt>
      <trkpt lat="47.87263" lon="2.43077">
        <ele>131</ele>
        <time>2025-04-20T14:43:30Z</time>
      </trkpt>
      <trkpt lat="47.87284" lon="2.43489">
        <ele>131</ele>
        <time>2025-04-20T14:44:19Z</time>
      </trkpt>
      <trkpt lat="47.87286" lon="2.43511">
        <ele>132</ele>
        <time>2025-04-20T14:44:22Z</time>
      </trkpt>
      <trkpt lat="47.87297" lon="2.43728">
        <ele>132</ele>
        <time>2025-04-20T14:44:48Z</time>
      </trkpt>
      <trkpt lat="47.87299" lon="2.43773">
        <ele>131</ele>
        <time>2025-04-20T14:44:53Z</time>
      </trkpt>
      <trkpt lat="47.87301" lon="2.43793">
        <ele>131</ele>
        <time>2025-04-20T14:44:56Z</time>
      </trkpt>
      <trkpt lat="47.87305" lon="2.43807">
        <ele>131</ele>
        <time>2025-04-20T14:44:57Z</time>
      </trkpt>
      <trkpt lat="47.87311" lon="2.43821">
        <ele>130</ele>
        <time>2025-04-20T14:44:59Z</time>
      </trkpt>
      <trkpt lat="47.87324" lon="2.43838">
        <ele>130</ele>
        <time>2025-04-20T14:45:02Z</time>
      </trkpt>
      <trkpt lat="47.87341" lon="2.43853">
        <ele>129</ele>
        <time>2025-04-20T14:45:06Z</time>
      </trkpt>
      <trkpt lat="47.87366" lon="2.43873">
        <ele>129</ele>
        <time>2025-04-20T14:45:11Z</time>
      </trkpt>
      <trkpt lat="47.87385" lon="2.43888">
        <ele>129</ele>
        <time>2025-04-20T14:45:15Z</time>
      </trkpt>
      <trkpt lat="47.87396" lon="2.439">
        <ele>129</ele>
        <time>2025-04-20T14:45:17Z</time>
      </trkpt>
      <trkpt lat="47.87402" lon="2.4391">
        <ele>129</ele>
        <time>2025-04-20T14:45:19Z</time>
      </trkpt>
      <trkpt lat="47.87414" lon="2.43937">
        <ele>129</ele>
        <time>2025-04-20T14:45:23Z</time>
      </trkpt>
      <trkpt lat="47.87451" lon="2.44066">
        <ele>128</ele>
        <time>2025-04-20T14:45:39Z</time>
      </trkpt>
      <trkpt lat="47.87465" lon="2.44122">
        <ele>128</ele>
        <time>2025-04-20T14:45:47Z</time>
      </trkpt>
      <trkpt lat="47.87478" lon="2.44188">
        <ele>129</ele>
        <time>2025-04-20T14:45:55Z</time>
      </trkpt>
      <trkpt lat="47.87483" lon="2.44216">
        <ele>129</ele>
        <time>2025-04-20T14:45:58Z</time>
      </trkpt>
      <trkpt lat="47.8751" lon="2.44351">
        <ele>132</ele>
        <time>2025-04-20T14:46:15Z</time>
      </trkpt>
      <trkpt lat="47.87518" lon="2.444">
        <ele>133</ele>
        <time>2025-04-20T14:46:21Z</time>
      </trkpt>
      <trkpt lat="47.87519" lon="2.44404">
        <ele>133</ele>
        <time>2025-04-20T14:46:22Z</time>
      </trkpt>
      <trkpt lat="47.8752" lon="2.44442">
        <ele>133</ele>
        <time>2025-04-20T14:46:26Z</time>
      </trkpt>
      <trkpt lat="47.87515" lon="2.4448">
        <ele>134</ele>
        <time>2025-04-20T14:46:31Z</time>
      </trkpt>
      <trkpt lat="47.87503" lon="2.44525">
        <ele>136</ele>
        <time>2025-04-20T14:46:37Z</time>
      </trkpt>
      <trkpt lat="47.87409" lon="2.44698">
        <ele>140</ele>
        <time>2025-04-20T14:47:03Z</time>
      </trkpt>
      <trkpt lat="47.87401" lon="2.44717">
        <ele>140</ele>
        <time>2025-04-20T14:47:06Z</time>
      </trkpt>
      <trkpt lat="47.87394" lon="2.44741">
        <ele>140</ele>
        <time>2025-04-20T14:47:09Z</time>
      </trkpt>
      <trkpt lat="47.87332" lon="2.45045">
        <ele>139</ele>
        <time>2025-04-20T14:47:47Z</time>
      </trkpt>
      <trkpt lat="47.87328" lon="2.4508">
        <ele>138</ele>
        <time>2025-04-20T14:47:51Z</time>
      </trkpt>
      <trkpt lat="47.87328" lon="2.45084">
        <ele>138</ele>
        <time>2025-04-20T14:47:52Z</time>
      </trkpt>
      <trkpt lat="47.87319" lon="2.45409">
        <ele>134</ele>
        <time>2025-04-20T14:48:30Z</time>
      </trkpt>
      <trkpt lat="47.87319" lon="2.4542">
        <ele>134</ele>
        <time>2025-04-20T14:48:32Z</time>
      </trkpt>
      <trkpt lat="47.87319" lon="2.45444">
        <ele>134</ele>
        <time>2025-04-20T14:48:35Z</time>
      </trkpt>
      <trkpt lat="47.87347" lon="2.45869">
        <ele>130</ele>
        <time>2025-04-20T14:49:26Z</time>
      </trkpt>
      <trkpt lat="47.87378" lon="2.4632">
        <ele>131</ele>
        <time>2025-04-20T14:50:20Z</time>
      </trkpt>
      <trkpt lat="47.8738" lon="2.46343">
        <ele>131</ele>
        <time>2025-04-20T14:50:22Z</time>
      </trkpt>
      <trkpt lat="47.87385" lon="2.46362">
        <ele>132</ele>
        <time>2025-04-20T14:50:25Z</time>
      </trkpt>
      <trkpt lat="47.874" lon="2.46398">
        <ele>132</ele>
        <time>2025-04-20T14:50:30Z</time>
      </trkpt>
      <trkpt lat="47.87589" lon="2.46805">
        <ele>133</ele>
        <time>2025-04-20T14:51:29Z</time>
      </trkpt>
      <trkpt lat="47.87604" lon="2.46841">
        <ele>133</ele>
        <time>2025-04-20T14:51:34Z</time>
      </trkpt>
      <trkpt lat="47.87611" lon="2.46869">
        <ele>133</ele>
        <time>2025-04-20T14:51:38Z</time>
      </trkpt>
      <trkpt lat="47.87645" lon="2.47029">
        <ele>134</ele>
        <time>2025-04-20T14:51:58Z</time>
      </trkpt>
      <trkpt lat="47.8765" lon="2.47047">
        <ele>134</ele>
        <time>2025-04-20T14:52:00Z</time>
      </trkpt>
      <trkpt lat="47.87718" lon="2.4735">
        <ele>137</ele>
        <time>2025-04-20T14:52:38Z</time>
      </trkpt>
      <trkpt lat="47.87728" lon="2.47412">
        <ele>136</ele>
        <time>2025-04-20T14:52:46Z</time>
      </trkpt>
      <trkpt lat="47.87736" lon="2.47463">
        <ele>135</ele>
        <time>2025-04-20T14:52:52Z</time>
      </trkpt>
      <trkpt lat="47.87751" lon="2.47665">
        <ele>133</ele>
        <time>2025-04-20T14:53:16Z</time>
      </trkpt>
      <trkpt lat="47.8776" lon="2.47795">
        <ele>131</ele>
        <time>2025-04-20T14:53:32Z</time>
      </trkpt>
      <trkpt lat="47.8776" lon="2.478">
        <ele>131</ele>
        <time>2025-04-20T14:53:32Z</time>
      </trkpt>
      <trkpt lat="47.87774" lon="2.47978">
        <ele>132</ele>
        <time>2025-04-20T14:53:54Z</time>
      </trkpt>
      <trkpt lat="47.87837" lon="2.48831">
        <ele>128</ele>
        <time>2025-04-20T14:55:36Z</time>
      </trkpt>
      <trkpt lat="47.87856" lon="2.4909">
        <ele>126</ele>
        <time>2025-04-20T14:56:07Z</time>
      </trkpt>
      <trkpt lat="47.87863" lon="2.49129">
        <ele>126</ele>
        <time>2025-04-20T14:56:12Z</time>
      </trkpt>
      <trkpt lat="47.87877" lon="2.49165">
        <ele>125</ele>
        <time>2025-04-20T14:56:17Z</time>
      </trkpt>
      <trkpt lat="47.87936" lon="2.49255">
        <ele>124</ele>
        <time>2025-04-20T14:56:32Z</time>
      </trkpt>
      <trkpt lat="47.8802" lon="2.4938">
        <ele>128</ele>
        <time>2025-04-20T14:56:53Z</time>
      </trkpt>
      <trkpt lat="47.88096" lon="2.49493">
        <ele>127</ele>
        <time>2025-04-20T14:57:12Z</time>
      </trkpt>
      <trkpt lat="47.88196" lon="2.4964">
        <ele>127</ele>
        <time>2025-04-20T14:57:37Z</time>
      </trkpt>
      <trkpt lat="47.8828" lon="2.49766">
        <ele>126</ele>
        <time>2025-04-20T14:57:58Z</time>
      </trkpt>
      <trkpt lat="47.88332" lon="2.49846">
        <ele>125</ele>
        <time>2025-04-20T14:58:12Z</time>
      </trkpt>
      <trkpt lat="47.8834" lon="2.4986">
        <ele>125</ele>
        <time>2025-04-20T14:58:14Z</time>
      </trkpt>
      <trkpt lat="47.88366" lon="2.49911">
        <ele>125</ele>
        <time>2025-04-20T14:58:22Z</time>
      </trkpt>
      <trkpt lat="47.88397" lon="2.49987">
        <ele>125</ele>
        <time>2025-04-20T14:58:32Z</time>
      </trkpt>
      <trkpt lat="47.88402" lon="2.5">
        <ele>125</ele>
        <time>2025-04-20T14:58:34Z</time>
      </trkpt>
      <trkpt lat="47.88404" lon="2.50005">
        <ele>125</ele>
        <time>2025-04-20T14:58:35Z</time>
      </trkpt>
      <trkpt lat="47.88434" lon="2.50074">
        <ele>122</ele>
        <time>2025-04-20T14:58:45Z</time>
      </trkpt>
      <trkpt lat="47.88435" lon="2.50079">
        <ele>122</ele>
        <time>2025-04-20T14:58:45Z</time>
      </trkpt>
      <trkpt lat="47.88447" lon="2.50106">
        <ele>122</ele>
        <time>2025-04-20T14:58:49Z</time>
      </trkpt>
      <trkpt lat="47.88463" lon="2.50145">
        <ele>123</ele>
        <time>2025-04-20T14:58:54Z</time>
      </trkpt>
      <trkpt lat="47.88502" lon="2.50218">
        <ele>123</ele>
        <time>2025-04-20T14:59:06Z</time>
      </trkpt>
      <trkpt lat="47.8867" lon="2.50519">
        <ele>119</ele>
        <time>2025-04-20T14:59:52Z</time>
      </trkpt>
      <trkpt lat="47.88726" lon="2.50619">
        <ele>118</ele>
        <time>2025-04-20T15:00:08Z</time>
      </trkpt>
      <trkpt lat="47.88808" lon="2.50762">
        <ele>116</ele>
        <time>2025-04-20T15:00:30Z</time>
      </trkpt>
      <trkpt lat="47.88828" lon="2.50799">
        <ele>117</ele>
        <time>2025-04-20T15:00:36Z</time>
      </trkpt>
      <trkpt lat="47.88835" lon="2.50821">
        <ele>117</ele>
        <time>2025-04-20T15:00:39Z</time>
      </trkpt>
      <trkpt lat="47.88798" lon="2.50925">
        <ele>118</ele>
        <time>2025-04-20T15:00:53Z</time>
      </trkpt>
      <trkpt lat="47.88754" lon="2.51046">
        <ele>118</ele>
        <time>2025-04-20T15:01:09Z</time>
      </trkpt>
      <trkpt lat="47.88717" lon="2.5115">
        <ele>119</ele>
        <time>2025-04-20T15:01:23Z</time>
      </trkpt>
      <trkpt lat="47.88716" lon="2.51152">
        <ele>119</ele>
        <time>2025-04-20T15:01:24Z</time>
      </trkpt>
      <trkpt lat="47.88715" lon="2.51169">
        <ele>119</ele>
        <time>2025-04-20T15:01:26Z</time>
      </trkpt>
      <trkpt lat="47.88715" lon="2.51213">
        <ele>120</ele>
        <time>2025-04-20T15:01:31Z</time>
      </trkpt>
      <trkpt lat="47.88742" lon="2.51243">
        <ele>121</ele>
        <time>2025-04-20T15:01:37Z</time>
      </trkpt>
      <trkpt lat="47.88799" lon="2.51302">
        <ele>121</ele>
        <time>2025-04-20T15:01:49Z</time>
      </trkpt>
      <trkpt lat="47.88808" lon="2.51317">
        <ele>121</ele>
        <time>2025-04-20T15:01:52Z</time>
      </trkpt>
      <trkpt lat="47.88806" lon="2.5132">
        <ele>121</ele>
        <time>2025-04-20T15:01:52Z</time>
      </trkpt>
      <trkpt lat="47.88805" lon="2.51323">
        <ele>121</ele>
        <time>2025-04-20T15:01:53Z</time>
      </trkpt>
      <trkpt lat="47.88804" lon="2.51327">
        <ele>122</ele>
        <time>2025-04-20T15:01:53Z</time>
      </trkpt>
      <trkpt lat="47.88804" lon="2.51332">
        <ele>122</ele>
        <time>2025-04-20T15:01:54Z</time>
      </trkpt>
      <trkpt lat="47.88805" lon="2.51335">
        <ele>122</ele>
        <time>2025-04-20T15:01:54Z</time>
      </trkpt>
      <trkpt lat="47.88807" lon="2.51338">
        <ele>122</ele>
        <time>2025-04-20T15:01:55Z</time>
      </trkpt>
      <trkpt lat="47.8881" lon="2.5134">
        <ele>122</ele>
        <time>2025-04-20T15:01:55Z</time>
      </trkpt>
      <trkpt lat="47.88799" lon="2.51381">
        <ele>122</ele>
        <time>2025-04-20T15:02:01Z</time>
      </trkpt>
      <trkpt lat="47.88794" lon="2.51376">
        <ele>122</ele>
        <time>2025-04-20T15:02:02Z</time>
      </trkpt>
      <trkpt lat="47.88778" lon="2.51412">
        <ele>123</ele>
        <time>2025-04-20T15:02:07Z</time>
      </trkpt>
      <trkpt lat="47.88771" lon="2.5142">
        <ele>123</ele>
        <time>2025-04-20T15:02:08Z</time>
      </trkpt>
      <trkpt lat="47.88584" lon="2.51547">
        <ele>123</ele>
        <time>2025-04-20T15:02:45Z</time>
      </trkpt>
      <trkpt lat="47.8856" lon="2.51564">
        <ele>124</ele>
        <time>2025-04-20T15:02:50Z</time>
      </trkpt>
      <trkpt lat="47.88537" lon="2.51584">
        <ele>125</ele>
        <time>2025-04-20T15:02:54Z</time>
      </trkpt>
      <trkpt lat="47.88529" lon="2.51593">
        <ele>126</ele>
        <time>2025-04-20T15:02:56Z</time>
      </trkpt>
      <trkpt lat="47.88503" lon="2.51626">
        <ele>126</ele>
        <time>2025-04-20T15:03:02Z</time>
      </trkpt>
      <trkpt lat="47.88447" lon="2.51701">
        <ele>128</ele>
        <time>2025-04-20T15:03:16Z</time>
      </trkpt>
      <trkpt lat="47.88434" lon="2.51717">
        <ele>128</ele>
        <time>2025-04-20T15:03:19Z</time>
      </trkpt>
      <trkpt lat="47.88422" lon="2.51729">
        <ele>129</ele>
        <time>2025-04-20T15:03:21Z</time>
      </trkpt>
      <trkpt lat="47.8841" lon="2.51739">
        <ele>129</ele>
        <time>2025-04-20T15:03:24Z</time>
      </trkpt>
      <trkpt lat="47.8838" lon="2.51757">
        <ele>129</ele>
        <time>2025-04-20T15:03:29Z</time>
      </trkpt>
      <trkpt lat="47.88326" lon="2.51778">
        <ele>128</ele>
        <time>2025-04-20T15:03:39Z</time>
      </trkpt>
      <trkpt lat="47.88261" lon="2.51807">
        <ele>129</ele>
        <time>2025-04-20T15:03:51Z</time>
      </trkpt>
      <trkpt lat="47.8826" lon="2.51813">
        <ele>129</ele>
        <time>2025-04-20T15:03:52Z</time>
      </trkpt>
      <trkpt lat="47.88247" lon="2.51818">
        <ele>130</ele>
        <time>2025-04-20T15:03:54Z</time>
      </trkpt>
      <trkpt lat="47.88244" lon="2.51812">
        <ele>130</ele>
        <time>2025-04-20T15:03:55Z</time>
      </trkpt>
      <trkpt lat="47.88241" lon="2.5181">
        <ele>130</ele>
        <time>2025-04-20T15:03:56Z</time>
      </trkpt>
      <trkpt lat="47.88238" lon="2.5181">
        <ele>130</ele>
        <time>2025-04-20T15:03:57Z</time>
      </trkpt>
      <trkpt lat="47.88235" lon="2.51811">
        <ele>130</ele>
        <time>2025-04-20T15:03:57Z</time>
      </trkpt>
      <trkpt lat="47.88232" lon="2.51814">
        <ele>130</ele>
        <time>2025-04-20T15:03:58Z</time>
      </trkpt>
      <trkpt lat="47.88231" lon="2.51818">
        <ele>130</ele>
        <time>2025-04-20T15:03:58Z</time>
      </trkpt>
      <trkpt lat="47.8823" lon="2.51826">
        <ele>130</ele>
        <time>2025-04-20T15:03:59Z</time>
      </trkpt>
      <trkpt lat="47.88189" lon="2.51843">
        <ele>131</ele>
        <time>2025-04-20T15:04:07Z</time>
      </trkpt>
      <trkpt lat="47.88117" lon="2.51875">
        <ele>130</ele>
        <time>2025-04-20T15:04:20Z</time>
      </trkpt>
      <trkpt lat="47.88026" lon="2.51919">
        <ele>128</ele>
        <time>2025-04-20T15:04:37Z</time>
      </trkpt>
      <trkpt lat="47.87868" lon="2.51999">
        <ele>128</ele>
        <time>2025-04-20T15:05:07Z</time>
      </trkpt>
      <trkpt lat="47.87793" lon="2.52041">
        <ele>127</ele>
        <time>2025-04-20T15:05:21Z</time>
      </trkpt>
      <trkpt lat="47.87765" lon="2.5206">
        <ele>126</ele>
        <time>2025-04-20T15:05:27Z</time>
      </trkpt>
      <trkpt lat="47.87746" lon="2.52075">
        <ele>126</ele>
        <time>2025-04-20T15:05:30Z</time>
      </trkpt>
      <trkpt lat="47.87714" lon="2.52102">
        <ele>126</ele>
        <time>2025-04-20T15:05:37Z</time>
      </trkpt>
      <trkpt lat="47.87649" lon="2.52162">
        <ele>126</ele>
        <time>2025-04-20T15:05:51Z</time>
      </trkpt>
      <trkpt lat="47.87592" lon="2.52218">
        <ele>124</ele>
        <time>2025-04-20T15:06:03Z</time>
      </trkpt>
      <trkpt lat="47.87481" lon="2.52323">
        <ele>123</ele>
        <time>2025-04-20T15:06:26Z</time>
      </trkpt>
      <trkpt lat="47.87365" lon="2.52435">
        <ele>122</ele>
        <time>2025-04-20T15:06:51Z</time>
      </trkpt>
      <trkpt lat="47.873" lon="2.5251">
        <ele>122</ele>
        <time>2025-04-20T15:07:05Z</time>
      </trkpt>
      <trkpt lat="47.87292" lon="2.52519">
        <ele>123</ele>
        <time>2025-04-20T15:07:07Z</time>
      </trkpt>
      <trkpt lat="47.87221" lon="2.52598">
        <ele>127</ele>
        <time>2025-04-20T15:07:23Z</time>
      </trkpt>
      <trkpt lat="47.87212" lon="2.52606">
        <ele>126</ele>
        <time>2025-04-20T15:07:25Z</time>
      </trkpt>
      <trkpt lat="47.86983" lon="2.52755">
        <ele>129</ele>
        <time>2025-04-20T15:08:09Z</time>
      </trkpt>
      <trkpt lat="47.86909" lon="2.52799">
        <ele>134</ele>
        <time>2025-04-20T15:08:23Z</time>
      </trkpt>
      <trkpt lat="47.8682" lon="2.52846">
        <ele>138</ele>
        <time>2025-04-20T15:08:40Z</time>
      </trkpt>
      <trkpt lat="47.86717" lon="2.52868">
        <ele>138</ele>
        <time>2025-04-20T15:08:59Z</time>
      </trkpt>
      <trkpt lat="47.86708" lon="2.52869">
        <ele>137</ele>
        <time>2025-04-20T15:09:00Z</time>
      </trkpt>
      <trkpt lat="47.86698" lon="2.52868">
        <ele>137</ele>
        <time>2025-04-20T15:09:02Z</time>
      </trkpt>
      <trkpt lat="47.86655" lon="2.52856">
        <ele>136</ele>
        <time>2025-04-20T15:09:10Z</time>
      </trkpt>
      <trkpt lat="47.86619" lon="2.52847">
        <ele>137</ele>
        <time>2025-04-20T15:09:16Z</time>
      </trkpt>
      <trkpt lat="47.86581" lon="2.52833">
        <ele>137</ele>
        <time>2025-04-20T15:09:23Z</time>
      </trkpt>
      <trkpt lat="47.86295" lon="2.52726">
        <ele>134</ele>
        <time>2025-04-20T15:10:16Z</time>
      </trkpt>
      <trkpt lat="47.86266" lon="2.52717">
        <ele>135</ele>
        <time>2025-04-20T15:10:21Z</time>
      </trkpt>
      <trkpt lat="47.86077" lon="2.52646">
        <ele>136</ele>
        <time>2025-04-20T15:10:56Z</time>
      </trkpt>
      <trkpt lat="47.85886" lon="2.5259">
        <ele>138</ele>
        <time>2025-04-20T15:11:30Z</time>
      </trkpt>
      <trkpt lat="47.85823" lon="2.52573">
        <ele>138</ele>
        <time>2025-04-20T15:11:42Z</time>
      </trkpt>
      <trkpt lat="47.85741" lon="2.52546">
        <ele>137</ele>
        <time>2025-04-20T15:11:57Z</time>
      </trkpt>
      <trkpt lat="47.85685" lon="2.52519">
        <ele>140</ele>
        <time>2025-04-20T15:12:07Z</time>
      </trkpt>
      <trkpt lat="47.85452" lon="2.52433">
        <ele>137</ele>
        <time>2025-04-20T15:12:50Z</time>
      </trkpt>
      <trkpt lat="47.8535" lon="2.52395">
        <ele>134</ele>
        <time>2025-04-20T15:13:09Z</time>
      </trkpt>
      <trkpt lat="47.85322" lon="2.52393">
        <ele>135</ele>
        <time>2025-04-20T15:13:14Z</time>
      </trkpt>
      <trkpt lat="47.85309" lon="2.52393">
        <ele>136</ele>
        <time>2025-04-20T15:13:16Z</time>
      </trkpt>
      <trkpt lat="47.85281" lon="2.52397">
        <ele>137</ele>
        <time>2025-04-20T15:13:21Z</time>
      </trkpt>
      <trkpt lat="47.85199" lon="2.52417">
        <ele>138</ele>
        <time>2025-04-20T15:13:36Z</time>
      </trkpt>
      <trkpt lat="47.85065" lon="2.52454">
        <ele>140</ele>
        <time>2025-04-20T15:14:00Z</time>
      </trkpt>
      <trkpt lat="47.849" lon="2.52529">
        <ele>139</ele>
        <time>2025-04-20T15:14:31Z</time>
      </trkpt>
      <trkpt lat="47.84813" lon="2.52575">
        <ele>134</ele>
        <time>2025-04-20T15:14:47Z</time>
      </trkpt>
      <trkpt lat="47.84802" lon="2.52584">
        <ele>134</ele>
        <time>2025-04-20T15:14:49Z</time>
      </trkpt>
      <trkpt lat="47.84743" lon="2.52633">
        <ele>134</ele>
        <time>2025-04-20T15:15:01Z</time>
      </trkpt>
      <trkpt lat="47.84721" lon="2.52656">
        <ele>134</ele>
        <time>2025-04-20T15:15:06Z</time>
      </trkpt>
      <trkpt lat="47.84709" lon="2.52672">
        <ele>134</ele>
        <time>2025-04-20T15:15:09Z</time>
      </trkpt>
      <trkpt lat="47.84545" lon="2.52996">
        <ele>136</ele>
        <time>2025-04-20T15:15:57Z</time>
      </trkpt>
      <trkpt lat="47.84541" lon="2.53012">
        <ele>135</ele>
        <time>2025-04-20T15:15:59Z</time>
      </trkpt>
      <trkpt lat="47.8454" lon="2.53027">
        <ele>135</ele>
        <time>2025-04-20T15:16:01Z</time>
      </trkpt>
      <trkpt lat="47.84527" lon="2.53216">
        <ele>132</ele>
        <time>2025-04-20T15:16:24Z</time>
      </trkpt>
      <trkpt lat="47.84523" lon="2.53233">
        <ele>132</ele>
        <time>2025-04-20T15:16:26Z</time>
      </trkpt>
      <trkpt lat="47.84518" lon="2.53248">
        <ele>132</ele>
        <time>2025-04-20T15:16:28Z</time>
      </trkpt>
      <trkpt lat="47.8449" lon="2.53311">
        <ele>133</ele>
        <time>2025-04-20T15:16:37Z</time>
      </trkpt>
      <trkpt lat="47.84425" lon="2.5344">
        <ele>136</ele>
        <time>2025-04-20T15:16:56Z</time>
      </trkpt>
      <trkpt lat="47.84379" lon="2.53525">
        <ele>137</ele>
        <time>2025-04-20T15:17:09Z</time>
      </trkpt>
      <trkpt lat="47.84366" lon="2.53544">
        <ele>137</ele>
        <time>2025-04-20T15:17:13Z</time>
      </trkpt>
      <trkpt lat="47.84353" lon="2.53561">
        <ele>138</ele>
        <time>2025-04-20T15:17:16Z</time>
      </trkpt>
      <trkpt lat="47.84331" lon="2.53583">
        <ele>138</ele>
        <time>2025-04-20T15:17:20Z</time>
      </trkpt>
      <trkpt lat="47.84252" lon="2.53655">
        <ele>143</ele>
        <time>2025-04-20T15:17:37Z</time>
      </trkpt>
      <trkpt lat="47.84221" lon="2.53678">
        <ele>143</ele>
        <time>2025-04-20T15:17:43Z</time>
      </trkpt>
      <trkpt lat="47.84204" lon="2.5368">
        <ele>143</ele>
        <time>2025-04-20T15:17:46Z</time>
      </trkpt>
      <trkpt lat="47.84183" lon="2.53675">
        <ele>143</ele>
        <time>2025-04-20T15:17:50Z</time>
      </trkpt>
      <trkpt lat="47.84166" lon="2.53668">
        <ele>143</ele>
        <time>2025-04-20T15:17:53Z</time>
      </trkpt>
      <trkpt lat="47.84164" lon="2.53667">
        <ele>143</ele>
        <time>2025-04-20T15:17:53Z</time>
      </trkpt>
      <trkpt lat="47.84175" lon="2.53688">
        <ele>143</ele>
        <time>2025-04-20T15:17:57Z</time>
      </trkpt>
      <trkpt lat="47.84247" lon="2.53797">
        <ele>143</ele>
        <time>2025-04-20T15:18:15Z</time>
      </trkpt>
      <trkpt lat="47.84265" lon="2.53829">
        <ele>142</ele>
        <time>2025-04-20T15:18:20Z</time>
      </trkpt>
      <trkpt lat="47.84285" lon="2.5387">
        <ele>143</ele>
        <time>2025-04-20T15:18:26Z</time>
      </trkpt>
      <trkpt lat="47.84317" lon="2.53941">
        <ele>145</ele>
        <time>2025-04-20T15:18:36Z</time>
      </trkpt>
      <trkpt lat="47.84392" lon="2.54086">
        <ele>142</ele>
        <time>2025-04-20T15:18:58Z</time>
      </trkpt>
      <trkpt lat="47.84437" lon="2.54158">
        <ele>140</ele>
        <time>2025-04-20T15:19:10Z</time>
      </trkpt>
      <trkpt lat="47.8446" lon="2.54195">
        <ele>140</ele>
        <time>2025-04-20T15:19:16Z</time>
      </trkpt>
      <trkpt lat="47.845" lon="2.5425">
        <ele>140</ele>
        <time>2025-04-20T15:19:25Z</time>
      </trkpt>
      <trkpt lat="47.84576" lon="2.54334">
        <ele>137</ele>
        <time>2025-04-20T15:19:42Z</time>
      </trkpt>
      <trkpt lat="47.84614" lon="2.54369">
        <ele>135</ele>
        <time>2025-04-20T15:19:50Z</time>
      </trkpt>
      <trkpt lat="47.84622" lon="2.54381">
        <ele>135</ele>
        <time>2025-04-20T15:19:52Z</time>
      </trkpt>
      <trkpt lat="47.84621" lon="2.54393">
        <ele>135</ele>
        <time>2025-04-20T15:19:54Z</time>
      </trkpt>
      <trkpt lat="47.84736" lon="2.54478">
        <ele>135</ele>
        <time>2025-04-20T15:20:16Z</time>
      </trkpt>
      <trkpt lat="47.84752" lon="2.5449">
        <ele>135</ele>
        <time>2025-04-20T15:20:20Z</time>
      </trkpt>
      <trkpt lat="47.84795" lon="2.54509">
        <ele>137</ele>
        <time>2025-04-20T15:20:28Z</time>
      </trkpt>
      <trkpt lat="47.84813" lon="2.54522">
        <ele>137</ele>
        <time>2025-04-20T15:20:31Z</time>
      </trkpt>
      <trkpt lat="47.84829" lon="2.54538">
        <ele>137</ele>
        <time>2025-04-20T15:20:35Z</time>
      </trkpt>
      <trkpt lat="47.84836" lon="2.5455">
        <ele>137</ele>
        <time>2025-04-20T15:20:37Z</time>
      </trkpt>
      <trkpt lat="47.84846" lon="2.54574">
        <ele>138</ele>
        <time>2025-04-20T15:20:40Z</time>
      </trkpt>
      <trkpt lat="47.84904" lon="2.54756">
        <ele>136</ele>
        <time>2025-04-20T15:21:04Z</time>
      </trkpt>
      <trkpt lat="47.84989" lon="2.54949">
        <ele>137</ele>
        <time>2025-04-20T15:21:32Z</time>
      </trkpt>
      <trkpt lat="47.85014" lon="2.55026">
        <ele>135</ele>
        <time>2025-04-20T15:21:42Z</time>
      </trkpt>
      <trkpt lat="47.85024" lon="2.55052">
        <ele>135</ele>
        <time>2025-04-20T15:21:45Z</time>
      </trkpt>
      <trkpt lat="47.85032" lon="2.55076">
        <ele>134</ele>
        <time>2025-04-20T15:21:49Z</time>
      </trkpt>
      <trkpt lat="47.85043" lon="2.55125">
        <ele>135</ele>
        <time>2025-04-20T15:21:55Z</time>
      </trkpt>
      <trkpt lat="47.85062" lon="2.55255">
        <ele>135</ele>
        <time>2025-04-20T15:22:11Z</time>
      </trkpt>
      <trkpt lat="47.85069" lon="2.55304">
        <ele>135</ele>
        <time>2025-04-20T15:22:17Z</time>
      </trkpt>
      <trkpt lat="47.85075" lon="2.55302">
        <ele>136</ele>
        <time>2025-04-20T15:22:18Z</time>
      </trkpt>
      <trkpt lat="47.85079" lon="2.55313">
        <ele>136</ele>
        <time>2025-04-20T15:22:19Z</time>
      </trkpt>
      <trkpt lat="47.85108" lon="2.55369">
        <ele>137</ele>
        <time>2025-04-20T15:22:28Z</time>
      </trkpt>
      <trkpt lat="47.85146" lon="2.55433">
        <ele>137</ele>
        <time>2025-04-20T15:22:38Z</time>
      </trkpt>
      <trkpt lat="47.85215" lon="2.55525">
        <ele>136</ele>
        <time>2025-04-20T15:22:54Z</time>
      </trkpt>
      <trkpt lat="47.85235" lon="2.55556">
        <ele>136</ele>
        <time>2025-04-20T15:22:59Z</time>
      </trkpt>
      <trkpt lat="47.85254" lon="2.55593">
        <ele>136</ele>
        <time>2025-04-20T15:23:05Z</time>
      </trkpt>
      <trkpt lat="47.85272" lon="2.55623">
        <ele>135</ele>
        <time>2025-04-20T15:23:10Z</time>
      </trkpt>
      <trkpt lat="47.8528" lon="2.55639">
        <ele>134</ele>
        <time>2025-04-20T15:23:12Z</time>
      </trkpt>
      <trkpt lat="47.85311" lon="2.5573">
        <ele>133</ele>
        <time>2025-04-20T15:23:24Z</time>
      </trkpt>
      <trkpt lat="47.85313" lon="2.55743">
        <ele>133</ele>
        <time>2025-04-20T15:23:26Z</time>
      </trkpt>
      <trkpt lat="47.85313" lon="2.55759">
        <ele>132</ele>
        <time>2025-04-20T15:23:28Z</time>
      </trkpt>
      <trkpt lat="47.85311" lon="2.55799">
        <ele>132</ele>
        <time>2025-04-20T15:23:33Z</time>
      </trkpt>
      <trkpt lat="47.85298" lon="2.55906">
        <ele>132</ele>
        <time>2025-04-20T15:23:46Z</time>
      </trkpt>
      <trkpt lat="47.85297" lon="2.55915">
        <ele>132</ele>
        <time>2025-04-20T15:23:47Z</time>
      </trkpt>
      <trkpt lat="47.85297" lon="2.55932">
        <ele>132</ele>
        <time>2025-04-20T15:23:49Z</time>
      </trkpt>
      <trkpt lat="47.85299" lon="2.55951">
        <ele>132</ele>
        <time>2025-04-20T15:23:51Z</time>
      </trkpt>
      <trkpt lat="47.85314" lon="2.56008">
        <ele>132</ele>
        <time>2025-04-20T15:23:58Z</time>
      </trkpt>
      <trkpt lat="47.85331" lon="2.56107">
        <ele>132</ele>
        <time>2025-04-20T15:24:11Z</time>
      </trkpt>
      <trkpt lat="47.85348" lon="2.56173">
        <ele>131</ele>
        <time>2025-04-20T15:24:19Z</time>
      </trkpt>
      <trkpt lat="47.85362" lon="2.56232">
        <ele>130</ele>
        <time>2025-04-20T15:24:26Z</time>
      </trkpt>
      <trkpt lat="47.85373" lon="2.56272">
        <ele>130</ele>
        <time>2025-04-20T15:24:32Z</time>
      </trkpt>
      <trkpt lat="47.85404" lon="2.56364">
        <ele>128</ele>
        <time>2025-04-20T15:24:44Z</time>
      </trkpt>
      <trkpt lat="47.85449" lon="2.56521">
        <ele>127</ele>
        <time>2025-04-20T15:25:04Z</time>
      </trkpt>
      <trkpt lat="47.85451" lon="2.56541">
        <ele>127</ele>
        <time>2025-04-20T15:25:07Z</time>
      </trkpt>
      <trkpt lat="47.85451" lon="2.56557">
        <ele>127</ele>
        <time>2025-04-20T15:25:09Z</time>
      </trkpt>
      <trkpt lat="47.85435" lon="2.56673">
        <ele>123</ele>
        <time>2025-04-20T15:25:23Z</time>
      </trkpt>
      <trkpt lat="47.85426" lon="2.56731">
        <ele>123</ele>
        <time>2025-04-20T15:25:30Z</time>
      </trkpt>
      <trkpt lat="47.85413" lon="2.56786">
        <ele>122</ele>
        <time>2025-04-20T15:25:37Z</time>
      </trkpt>
      <trkpt lat="47.85408" lon="2.56804">
        <ele>121</ele>
        <time>2025-04-20T15:25:39Z</time>
      </trkpt>
      <trkpt lat="47.85393" lon="2.56853">
        <ele>119</ele>
        <time>2025-04-20T15:25:46Z</time>
      </trkpt>
      <trkpt lat="47.85381" lon="2.56886">
        <ele>118</ele>
        <time>2025-04-20T15:25:50Z</time>
      </trkpt>
      <trkpt lat="47.85474" lon="2.57049">
        <ele>117</ele>
        <time>2025-04-20T15:26:16Z</time>
      </trkpt>
      <trkpt lat="47.85479" lon="2.57057">
        <ele>117</ele>
        <time>2025-04-20T15:26:17Z</time>
      </trkpt>
      <trkpt lat="47.85521" lon="2.57131">
        <ele>117</ele>
        <time>2025-04-20T15:26:28Z</time>
      </trkpt>
      <trkpt lat="47.85561" lon="2.57198">
        <ele>118</ele>
        <time>2025-04-20T15:26:39Z</time>
      </trkpt>
      <trkpt lat="47.85605" lon="2.57253">
        <ele>118</ele>
        <time>2025-04-20T15:26:49Z</time>
      </trkpt>
      <trkpt lat="47.85635" lon="2.573">
        <ele>117</ele>
        <time>2025-04-20T15:26:57Z</time>
      </trkpt>
      <trkpt lat="47.85637" lon="2.57303">
        <ele>117</ele>
        <time>2025-04-20T15:26:58Z</time>
      </trkpt>
      <trkpt lat="47.85656" lon="2.57328">
        <ele>115</ele>
        <time>2025-04-20T15:27:02Z</time>
      </trkpt>
      <trkpt lat="47.85651" lon="2.57365">
        <ele>115</ele>
        <time>2025-04-20T15:27:07Z</time>
      </trkpt>
      <trkpt lat="47.85643" lon="2.57455">
        <ele>114</ele>
        <time>2025-04-20T15:27:17Z</time>
      </trkpt>
      <trkpt lat="47.8564" lon="2.57471">
        <ele>114</ele>
        <time>2025-04-20T15:27:19Z</time>
      </trkpt>
      <trkpt lat="47.85621" lon="2.57538">
        <ele>114</ele>
        <time>2025-04-20T15:27:28Z</time>
      </trkpt>
      <trkpt lat="47.85617" lon="2.57551">
        <ele>114</ele>
        <time>2025-04-20T15:27:30Z</time>
      </trkpt>
      <trkpt lat="47.85606" lon="2.57573">
        <ele>115</ele>
        <time>2025-04-20T15:27:33Z</time>
      </trkpt>
      <trkpt lat="47.85603" lon="2.57578">
        <ele>115</ele>
        <time>2025-04-20T15:27:34Z</time>
      </trkpt>
      <trkpt lat="47.856" lon="2.57584">
        <ele>115</ele>
        <time>2025-04-20T15:27:35Z</time>
      </trkpt>
      <trkpt lat="47.85594" lon="2.57594">
        <ele>116</ele>
        <time>2025-04-20T15:27:36Z</time>
      </trkpt>
      <trkpt lat="47.85575" lon="2.57615">
        <ele>117</ele>
        <time>2025-04-20T15:27:41Z</time>
      </trkpt>
      <trkpt lat="47.8555" lon="2.57634">
        <ele>118</ele>
        <time>2025-04-20T15:27:46Z</time>
      </trkpt>
      <trkpt lat="47.8531" lon="2.57723">
        <ele>126</ele>
        <time>2025-04-20T15:28:30Z</time>
      </trkpt>
      <trkpt lat="47.85204" lon="2.5776">
        <ele>127</ele>
        <time>2025-04-20T15:28:49Z</time>
      </trkpt>
      <trkpt lat="47.8507" lon="2.57813">
        <ele>126</ele>
        <time>2025-04-20T15:29:14Z</time>
      </trkpt>
      <trkpt lat="47.85009" lon="2.57833">
        <ele>129</ele>
        <time>2025-04-20T15:29:25Z</time>
      </trkpt>
      <trkpt lat="47.84968" lon="2.5785">
        <ele>129</ele>
        <time>2025-04-20T15:29:32Z</time>
      </trkpt>
      <trkpt lat="47.84872" lon="2.57886">
        <ele>131</ele>
        <time>2025-04-20T15:29:50Z</time>
      </trkpt>
      <trkpt lat="47.84869" lon="2.57887">
        <ele>132</ele>
        <time>2025-04-20T15:29:51Z</time>
      </trkpt>
      <trkpt lat="47.84802" lon="2.57912">
        <ele>134</ele>
        <time>2025-04-20T15:30:03Z</time>
      </trkpt>
      <trkpt lat="47.84601" lon="2.57987">
        <ele>136</ele>
        <time>2025-04-20T15:30:40Z</time>
      </trkpt>
      <trkpt lat="47.84414" lon="2.58056">
        <ele>134</ele>
        <time>2025-04-20T15:31:14Z</time>
      </trkpt>
      <trkpt lat="47.84404" lon="2.58059">
        <ele>134</ele>
        <time>2025-04-20T15:31:16Z</time>
      </trkpt>
      <trkpt lat="47.84289" lon="2.58102">
        <ele>135</ele>
        <time>2025-04-20T15:31:37Z</time>
      </trkpt>
      <trkpt lat="47.84284" lon="2.58103">
        <ele>136</ele>
        <time>2025-04-20T15:31:38Z</time>
      </trkpt>
      <trkpt lat="47.83954" lon="2.58226">
        <ele>136</ele>
        <time>2025-04-20T15:32:38Z</time>
      </trkpt>
      <trkpt lat="47.83714" lon="2.58316">
        <ele>135</ele>
        <time>2025-04-20T15:33:22Z</time>
      </trkpt>
      <trkpt lat="47.83512" lon="2.58391">
        <ele>137</ele>
        <time>2025-04-20T15:33:59Z</time>
      </trkpt>
      <trkpt lat="47.8324" lon="2.58492">
        <ele>134</ele>
        <time>2025-04-20T15:34:49Z</time>
      </trkpt>
      <trkpt lat="47.83228" lon="2.58492">
        <ele>134</ele>
        <time>2025-04-20T15:34:51Z</time>
      </trkpt>
      <trkpt lat="47.83214" lon="2.58492">
        <ele>134</ele>
        <time>2025-04-20T15:34:54Z</time>
      </trkpt>
      <trkpt lat="47.83199" lon="2.58489">
        <ele>134</ele>
        <time>2025-04-20T15:34:57Z</time>
      </trkpt>
      <trkpt lat="47.83028" lon="2.5844">
        <ele>133</ele>
        <time>2025-04-20T15:35:28Z</time>
      </trkpt>
      <trkpt lat="47.82806" lon="2.58508">
        <ele>136</ele>
        <time>2025-04-20T15:36:08Z</time>
      </trkpt>
      <trkpt lat="47.82644" lon="2.58558">
        <ele>143</ele>
        <time>2025-04-20T15:36:37Z</time>
      </trkpt>
      <trkpt lat="47.82506" lon="2.58603">
        <ele>142</ele>
        <time>2025-04-20T15:37:02Z</time>
      </trkpt>
      <trkpt lat="47.82329" lon="2.58658">
        <ele>140</ele>
        <time>2025-04-20T15:37:35Z</time>
      </trkpt>
      <trkpt lat="47.82036" lon="2.58751">
        <ele>144</ele>
        <time>2025-04-20T15:38:28Z</time>
      </trkpt>
      <trkpt lat="47.81883" lon="2.58799">
        <ele>146</ele>
        <time>2025-04-20T15:38:56Z</time>
      </trkpt>
      <trkpt lat="47.8142" lon="2.58943">
        <ele>147</ele>
        <time>2025-04-20T15:40:20Z</time>
      </trkpt>
      <trkpt lat="47.81051" lon="2.59059">
        <ele>150</ele>
        <time>2025-04-20T15:41:27Z</time>
      </trkpt>
      <trkpt lat="47.80964" lon="2.59084">
        <ele>151</ele>
        <time>2025-04-20T15:41:43Z</time>
      </trkpt>
      <trkpt lat="47.809" lon="2.59106">
        <ele>152</ele>
        <time>2025-04-20T15:41:54Z</time>
      </trkpt>
      <trkpt lat="47.80843" lon="2.5913">
        <ele>152</ele>
        <time>2025-04-20T15:42:05Z</time>
      </trkpt>
      <trkpt lat="47.8078" lon="2.59161">
        <ele>153</ele>
        <time>2025-04-20T15:42:17Z</time>
      </trkpt>
      <trkpt lat="47.80653" lon="2.59211">
        <ele>154</ele>
        <time>2025-04-20T15:42:40Z</time>
      </trkpt>
      <trkpt lat="47.80166" lon="2.59344">
        <ele>155</ele>
        <time>2025-04-20T15:44:08Z</time>
      </trkpt>
      <trkpt lat="47.8001" lon="2.59386">
        <ele>154</ele>
        <time>2025-04-20T15:44:36Z</time>
      </trkpt>
      <trkpt lat="47.79815" lon="2.59442">
        <ele>156</ele>
        <time>2025-04-20T15:45:12Z</time>
      </trkpt>
      <trkpt lat="47.79699" lon="2.59478">
        <ele>159</ele>
        <time>2025-04-20T15:45:33Z</time>
      </trkpt>
      <trkpt lat="47.7913" lon="2.59635">
        <ele>163</ele>
        <time>2025-04-20T15:47:16Z</time>
      </trkpt>
      <trkpt lat="47.78788" lon="2.59734">
        <ele>170</ele>
        <time>2025-04-20T15:48:18Z</time>
      </trkpt>
      <trkpt lat="47.78353" lon="2.59854">
        <ele>163</ele>
        <time>2025-04-20T15:49:37Z</time>
      </trkpt>
      <trkpt lat="47.78151" lon="2.59911">
        <ele>157</ele>
        <time>2025-04-20T15:50:13Z</time>
      </trkpt>
      <trkpt lat="47.78112" lon="2.59925">
        <ele>157</ele>
        <time>2025-04-20T15:50:20Z</time>
      </trkpt>
      <trkpt lat="47.77656" lon="2.60306">
        <ele>154</ele>
        <time>2025-04-20T15:51:53Z</time>
      </trkpt>
      <trkpt lat="47.7741" lon="2.60522">
        <ele>152</ele>
        <time>2025-04-20T15:52:44Z</time>
      </trkpt>
      <trkpt lat="47.77183" lon="2.60714">
        <ele>152</ele>
        <time>2025-04-20T15:53:31Z</time>
      </trkpt>
      <trkpt lat="47.77029" lon="2.6023">
        <ele>151</ele>
        <time>2025-04-20T15:54:35Z</time>
      </trkpt>
      <trkpt lat="47.77021" lon="2.60183">
        <ele>150</ele>
        <time>2025-04-20T15:54:40Z</time>
      </trkpt>
      <trkpt lat="47.77019" lon="2.6015">
        <ele>149</ele>
        <time>2025-04-20T15:54:44Z</time>
      </trkpt>
      <trkpt lat="47.77019" lon="2.60147">
        <ele>149</ele>
        <time>2025-04-20T15:54:45Z</time>
      </trkpt>
      <trkpt lat="47.77007" lon="2.60147">
        <ele>149</ele>
        <time>2025-04-20T15:54:47Z</time>
      </trkpt>
      <trkpt lat="47.76995" lon="2.60143">
        <ele>149</ele>
        <time>2025-04-20T15:54:49Z</time>
      </trkpt>
      <trkpt lat="47.76985" lon="2.6014">
        <ele>149</ele>
        <time>2025-04-20T15:54:51Z</time>
      </trkpt>
      <trkpt lat="47.76995" lon="2.60143">
        <ele>149</ele>
        <time>2025-04-20T15:54:53Z</time>
      </trkpt>
      <trkpt lat="47.77007" lon="2.60147">
        <ele>149</ele>
        <time>2025-04-20T15:54:55Z</time>
      </trkpt>
      <trkpt lat="47.77019" lon="2.60147">
        <ele>149</ele>
        <time>2025-04-20T15:54:57Z</time>
      </trkpt>
      <trkpt lat="47.77019" lon="2.60135">
        <ele>149</ele>
        <time>2025-04-20T15:54:59Z</time>
      </trkpt>
      <trkpt lat="47.77025" lon="2.59916">
        <ele>148</ele>
        <time>2025-04-20T15:55:25Z</time>
      </trkpt>
      <trkpt lat="47.77104" lon="2.57838">
        <ele>150</ele>
        <time>2025-04-20T15:59:34Z</time>
      </trkpt>
      <trkpt lat="47.77103" lon="2.57812">
        <ele>150</ele>
        <time>2025-04-20T15:59:37Z</time>
      </trkpt>
      <trkpt lat="47.77101" lon="2.57788">
        <ele>150</ele>
        <time>2025-04-20T15:59:40Z</time>
      </trkpt>
      <trkpt lat="47.77097" lon="2.57763">
        <ele>150</ele>
        <time>2025-04-20T15:59:43Z</time>
      </trkpt>
      <trkpt lat="47.77089" lon="2.57735">
        <ele>150</ele>
        <time>2025-04-20T15:59:46Z</time>
      </trkpt>
      <trkpt lat="47.76831" lon="2.57003">
        <ele>151</ele>
        <time>2025-04-20T16:01:25Z</time>
      </trkpt>
      <trkpt lat="47.7682" lon="2.56962">
        <ele>150</ele>
        <time>2025-04-20T16:01:30Z</time>
      </trkpt>
      <trkpt lat="47.76718" lon="2.56422">
        <ele>147</ele>
        <time>2025-04-20T16:02:38Z</time>
      </trkpt>
      <trkpt lat="47.76618" lon="2.55899">
        <ele>151</ele>
        <time>2025-04-20T16:03:43Z</time>
      </trkpt>
      <trkpt lat="47.76571" lon="2.55639">
        <ele>150</ele>
        <time>2025-04-20T16:04:15Z</time>
      </trkpt>
      <trkpt lat="47.7657" lon="2.55629">
        <ele>150</ele>
        <time>2025-04-20T16:04:16Z</time>
      </trkpt>
      <trkpt lat="47.76562" lon="2.55606">
        <ele>149</ele>
        <time>2025-04-20T16:04:19Z</time>
      </trkpt>
      <trkpt lat="47.76551" lon="2.55588">
        <ele>148</ele>
        <time>2025-04-20T16:04:22Z</time>
      </trkpt>
      <trkpt lat="47.76457" lon="2.55473">
        <ele>150</ele>
        <time>2025-04-20T16:04:44Z</time>
      </trkpt>
      <trkpt lat="47.76427" lon="2.55424">
        <ele>152</ele>
        <time>2025-04-20T16:04:52Z</time>
      </trkpt>
      <trkpt lat="47.76441" lon="2.55411">
        <ele>151</ele>
        <time>2025-04-20T16:04:55Z</time>
      </trkpt>
      <trkpt lat="47.76583" lon="2.553">
        <ele>149</ele>
        <time>2025-04-20T16:05:23Z</time>
      </trkpt>
      <trkpt lat="47.76681" lon="2.55216">
        <ele>149</ele>
        <time>2025-04-20T16:05:43Z</time>
      </trkpt>
      <trkpt lat="47.76723" lon="2.55166">
        <ele>147</ele>
        <time>2025-04-20T16:05:53Z</time>
      </trkpt>
      <trkpt lat="47.7673" lon="2.55161">
        <ele>147</ele>
        <time>2025-04-20T16:05:54Z</time>
      </trkpt>
      <trkpt lat="47.76737" lon="2.55161">
        <ele>146</ele>
        <time>2025-04-20T16:05:55Z</time>
      </trkpt>
      <trkpt lat="47.76744" lon="2.55164">
        <ele>146</ele>
        <time>2025-04-20T16:05:57Z</time>
      </trkpt>
      <trkpt lat="47.7675" lon="2.55171">
        <ele>146</ele>
        <time>2025-04-20T16:05:58Z</time>
      </trkpt>
      <trkpt lat="47.76756" lon="2.55181">
        <ele>146</ele>
        <time>2025-04-20T16:06:00Z</time>
      </trkpt>
      <trkpt lat="47.76819" lon="2.55328">
        <ele>142</ele>
        <time>2025-04-20T16:06:20Z</time>
      </trkpt>
      <trkpt lat="47.76827" lon="2.55345">
        <ele>141</ele>
        <time>2025-04-20T16:06:23Z</time>
      </trkpt>
      <trkpt lat="47.76835" lon="2.55356">
        <ele>141</ele>
        <time>2025-04-20T16:06:25Z</time>
      </trkpt>
      <trkpt lat="47.7687" lon="2.554">
        <ele>143</ele>
        <time>2025-04-20T16:06:33Z</time>
      </trkpt>
      <trkpt lat="47.76886" lon="2.55424">
        <ele>144</ele>
        <time>2025-04-20T16:06:37Z</time>
      </trkpt>
      <trkpt lat="47.76915" lon="2.55471">
        <ele>147</ele>
        <time>2025-04-20T16:06:45Z</time>
      </trkpt>
      <trkpt lat="47.76919" lon="2.55469">
        <ele>148</ele>
        <time>2025-04-20T16:06:45Z</time>
      </trkpt>
      <trkpt lat="47.76923" lon="2.55465">
        <ele>148</ele>
        <time>2025-04-20T16:06:46Z</time>
      </trkpt>
      <trkpt lat="47.76953" lon="2.55414">
        <ele>147</ele>
        <time>2025-04-20T16:06:54Z</time>
      </trkpt>
      <trkpt lat="47.76961" lon="2.55398">
        <ele>146</ele>
        <time>2025-04-20T16:06:57Z</time>
      </trkpt>
      <trkpt lat="47.7698" lon="2.55347">
        <ele>146</ele>
        <time>2025-04-20T16:07:04Z</time>
      </trkpt>
      <trkpt lat="47.76987" lon="2.55319">
        <ele>145</ele>
        <time>2025-04-20T16:07:07Z</time>
      </trkpt>
      <trkpt lat="47.76996" lon="2.55255">
        <ele>144</ele>
        <time>2025-04-20T16:07:15Z</time>
      </trkpt>
      <trkpt lat="47.76999" lon="2.5516">
        <ele>141</ele>
        <time>2025-04-20T16:07:27Z</time>
      </trkpt>
      <trkpt lat="47.77001" lon="2.55141">
        <ele>141</ele>
        <time>2025-04-20T16:07:29Z</time>
      </trkpt>
      <trkpt lat="47.77005" lon="2.55127">
        <ele>141</ele>
        <time>2025-04-20T16:07:31Z</time>
      </trkpt>
      <trkpt lat="47.77044" lon="2.55076">
        <ele>143</ele>
        <time>2025-04-20T16:07:40Z</time>
      </trkpt>
      <trkpt lat="47.77051" lon="2.55064">
        <ele>143</ele>
        <time>2025-04-20T16:07:42Z</time>
      </trkpt>
      <trkpt lat="47.77068" lon="2.55013">
        <ele>143</ele>
        <time>2025-04-20T16:07:49Z</time>
      </trkpt>
      <trkpt lat="47.77071" lon="2.54998">
        <ele>143</ele>
        <time>2025-04-20T16:07:50Z</time>
      </trkpt>
      <trkpt lat="47.77072" lon="2.54974">
        <ele>143</ele>
        <time>2025-04-20T16:07:53Z</time>
      </trkpt>
      <trkpt lat="47.77076" lon="2.54958">
        <ele>143</ele>
        <time>2025-04-20T16:07:55Z</time>
      </trkpt>
      <trkpt lat="47.77082" lon="2.54945">
        <ele>144</ele>
        <time>2025-04-20T16:07:57Z</time>
      </trkpt>
      <trkpt lat="47.77118" lon="2.54889">
        <ele>146</ele>
        <time>2025-04-20T16:08:07Z</time>
      </trkpt>
      <trkpt lat="47.77141" lon="2.54851">
        <ele>148</ele>
        <time>2025-04-20T16:08:13Z</time>
      </trkpt>
      <trkpt lat="47.77163" lon="2.5481">
        <ele>149</ele>
        <time>2025-04-20T16:08:19Z</time>
      </trkpt>
      <trkpt lat="47.77172" lon="2.54796">
        <ele>149</ele>
        <time>2025-04-20T16:08:21Z</time>
      </trkpt>
      <trkpt lat="47.77181" lon="2.54783">
        <ele>150</ele>
        <time>2025-04-20T16:08:23Z</time>
      </trkpt>
      <trkpt lat="47.77218" lon="2.54749">
        <ele>150</ele>
        <time>2025-04-20T16:08:31Z</time>
      </trkpt>
      <trkpt lat="47.77264" lon="2.54706">
        <ele>151</ele>
        <time>2025-04-20T16:08:41Z</time>
      </trkpt>
      <trkpt lat="47.77136" lon="2.54382">
        <ele>150</ele>
        <time>2025-04-20T16:09:26Z</time>
      </trkpt>
      <trkpt lat="47.77088" lon="2.54259">
        <ele>150</ele>
        <time>2025-04-20T16:09:43Z</time>
      </trkpt>
      <trkpt lat="47.77078" lon="2.54224">
        <ele>150</ele>
        <time>2025-04-20T16:09:47Z</time>
      </trkpt>
      <trkpt lat="47.77072" lon="2.54188">
        <ele>150</ele>
        <time>2025-04-20T16:09:52Z</time>
      </trkpt>
      <trkpt lat="47.77063" lon="2.54098">
        <ele>150</ele>
        <time>2025-04-20T16:10:03Z</time>
      </trkpt>
      <trkpt lat="47.77058" lon="2.54057">
        <ele>149</ele>
        <time>2025-04-20T16:10:08Z</time>
      </trkpt>
      <trkpt lat="47.77049" lon="2.54005">
        <ele>148</ele>
        <time>2025-04-20T16:10:14Z</time>
      </trkpt>
      <trkpt lat="47.77044" lon="2.53985">
        <ele>148</ele>
        <time>2025-04-20T16:10:17Z</time>
      </trkpt>
      <trkpt lat="47.77033" lon="2.5394">
        <ele>149</ele>
        <time>2025-04-20T16:10:22Z</time>
      </trkpt>
      <trkpt lat="47.77234" lon="2.53816">
        <ele>150</ele>
        <time>2025-04-20T16:11:01Z</time>
      </trkpt>
      <trkpt lat="47.77238" lon="2.53814">
        <ele>150</ele>
        <time>2025-04-20T16:11:02Z</time>
      </trkpt>
      <trkpt lat="47.77255" lon="2.53791">
        <ele>150</ele>
        <time>2025-04-20T16:11:06Z</time>
      </trkpt>
      <trkpt lat="47.7727" lon="2.5377">
        <ele>150</ele>
        <time>2025-04-20T16:11:10Z</time>
      </trkpt>
      <trkpt lat="47.77304" lon="2.53709">
        <ele>148</ele>
        <time>2025-04-20T16:11:19Z</time>
      </trkpt>
      <trkpt lat="47.77323" lon="2.53683">
        <ele>148</ele>
        <time>2025-04-20T16:11:24Z</time>
      </trkpt>
      <trkpt lat="47.7733" lon="2.53673">
        <ele>147</ele>
        <time>2025-04-20T16:11:25Z</time>
      </trkpt>
      <trkpt lat="47.7737" lon="2.53592">
        <ele>149</ele>
        <time>2025-04-20T16:11:37Z</time>
      </trkpt>
      <trkpt lat="47.77381" lon="2.53572">
        <ele>149</ele>
        <time>2025-04-20T16:11:41Z</time>
      </trkpt>
      <trkpt lat="47.77452" lon="2.53469">
        <ele>149</ele>
        <time>2025-04-20T16:11:58Z</time>
      </trkpt>
      <trkpt lat="47.77476" lon="2.53426">
        <ele>150</ele>
        <time>2025-04-20T16:12:05Z</time>
      </trkpt>
      <trkpt lat="47.77602" lon="2.53133">
        <ele>150</ele>
        <time>2025-04-20T16:12:46Z</time>
      </trkpt>
      <trkpt lat="47.77592" lon="2.53109">
        <ele>150</ele>
        <time>2025-04-20T16:12:50Z</time>
      </trkpt>
      <trkpt lat="47.77579" lon="2.53083">
        <ele>150</ele>
        <time>2025-04-20T16:12:54Z</time>
      </trkpt>
      <trkpt lat="47.77566" lon="2.53052">
        <ele>149</ele>
        <time>2025-04-20T16:12:58Z</time>
      </trkpt>
      <trkpt lat="47.77553" lon="2.53026">
        <ele>149</ele>
        <time>2025-04-20T16:13:02Z</time>
      </trkpt>
      <trkpt lat="47.77541" lon="2.53009">
        <ele>149</ele>
        <time>2025-04-20T16:13:05Z</time>
      </trkpt>
      <trkpt lat="47.77513" lon="2.52973">
        <ele>149</ele>
        <time>2025-04-20T16:13:11Z</time>
      </trkpt>
      <trkpt lat="47.77491" lon="2.52951">
        <ele>148</ele>
        <time>2025-04-20T16:13:16Z</time>
      </trkpt>
      <trkpt lat="47.77457" lon="2.52923">
        <ele>148</ele>
        <time>2025-04-20T16:13:23Z</time>
      </trkpt>
      <trkpt lat="47.77451" lon="2.52913">
        <ele>148</ele>
        <time>2025-04-20T16:13:25Z</time>
      </trkpt>
      <trkpt lat="47.7745" lon="2.52895">
        <ele>148</ele>
        <time>2025-04-20T16:13:27Z</time>
      </trkpt>
      <trkpt lat="47.77461" lon="2.52843">
        <ele>148</ele>
        <time>2025-04-20T16:13:33Z</time>
      </trkpt>
      <trkpt lat="47.77469" lon="2.52798">
        <ele>148</ele>
        <time>2025-04-20T16:13:39Z</time>
      </trkpt>
      <trkpt lat="47.77479" lon="2.52802">
        <ele>148</ele>
        <time>2025-04-20T16:13:41Z</time>
      </trkpt>
      <trkpt lat="47.77509" lon="2.52809">
        <ele>148</ele>
        <time>2025-04-20T16:13:46Z</time>
      </trkpt>
      <trkpt lat="47.77624" lon="2.52818">
        <ele>149</ele>
        <time>2025-04-20T16:14:07Z</time>
      </trkpt>
      <trkpt lat="47.77658" lon="2.52824">
        <ele>150</ele>
        <time>2025-04-20T16:14:13Z</time>
      </trkpt>
      <trkpt lat="47.77729" lon="2.52848">
        <ele>148</ele>
        <time>2025-04-20T16:14:26Z</time>
      </trkpt>
      <trkpt lat="47.7779" lon="2.52877">
        <ele>147</ele>
        <time>2025-04-20T16:14:37Z</time>
      </trkpt>
      <trkpt lat="47.77883" lon="2.52908">
        <ele>148</ele>
        <time>2025-04-20T16:14:54Z</time>
      </trkpt>
      <trkpt lat="47.77947" lon="2.52931">
        <ele>149</ele>
        <time>2025-04-20T16:15:06Z</time>
      </trkpt>
      <trkpt lat="47.77977" lon="2.52945">
        <ele>148</ele>
        <time>2025-04-20T16:15:11Z</time>
      </trkpt>
      <trkpt lat="47.78003" lon="2.52961">
        <ele>148</ele>
        <time>2025-04-20T16:15:16Z</time>
      </trkpt>
      <trkpt lat="47.78029" lon="2.52985">
        <ele>148</ele>
        <time>2025-04-20T16:15:22Z</time>
      </trkpt>
      <trkpt lat="47.78087" lon="2.53042">
        <ele>147</ele>
        <time>2025-04-20T16:15:34Z</time>
      </trkpt>
      <trkpt lat="47.78112" lon="2.53063">
        <ele>146</ele>
        <time>2025-04-20T16:15:39Z</time>
      </trkpt>
      <trkpt lat="47.78163" lon="2.53101">
        <ele>146</ele>
        <time>2025-04-20T16:15:49Z</time>
      </trkpt>
      <trkpt lat="47.78192" lon="2.53119">
        <ele>143</ele>
        <time>2025-04-20T16:15:55Z</time>
      </trkpt>
      <trkpt lat="47.782" lon="2.53122">
        <ele>142</ele>
        <time>2025-04-20T16:15:57Z</time>
      </trkpt>
      <trkpt lat="47.78208" lon="2.53122">
        <ele>142</ele>
        <time>2025-04-20T16:15:58Z</time>
      </trkpt>
      <trkpt lat="47.78214" lon="2.5312">
        <ele>141</ele>
        <time>2025-04-20T16:15:59Z</time>
      </trkpt>
      <trkpt lat="47.78337" lon="2.53008">
        <ele>142</ele>
        <time>2025-04-20T16:16:25Z</time>
      </trkpt>
      <trkpt lat="47.78361" lon="2.52987">
        <ele>143</ele>
        <time>2025-04-20T16:16:30Z</time>
      </trkpt>
      <trkpt lat="47.78433" lon="2.52908">
        <ele>146</ele>
        <time>2025-04-20T16:16:46Z</time>
      </trkpt>
      <trkpt lat="47.78452" lon="2.52886">
        <ele>147</ele>
        <time>2025-04-20T16:16:50Z</time>
      </trkpt>
      <trkpt lat="47.78503" lon="2.52828">
        <ele>149</ele>
        <time>2025-04-20T16:17:01Z</time>
      </trkpt>
      <trkpt lat="47.78546" lon="2.52781">
        <ele>151</ele>
        <time>2025-04-20T16:17:11Z</time>
      </trkpt>
      <trkpt lat="47.78456" lon="2.52065">
        <ele>156</ele>
        <time>2025-04-20T16:18:38Z</time>
      </trkpt>
      <trkpt lat="47.78493" lon="2.51357">
        <ele>153</ele>
        <time>2025-04-20T16:20:03Z</time>
      </trkpt>
      <trkpt lat="47.78496" lon="2.51337">
        <ele>151</ele>
        <time>2025-04-20T16:20:05Z</time>
      </trkpt>
      <trkpt lat="47.78499" lon="2.51291">
        <ele>150</ele>
        <time>2025-04-20T16:20:11Z</time>
      </trkpt>
      <trkpt lat="47.78499" lon="2.51276">
        <ele>150</ele>
        <time>2025-04-20T16:20:13Z</time>
      </trkpt>
      <trkpt lat="47.78495" lon="2.51254">
        <ele>149</ele>
        <time>2025-04-20T16:20:15Z</time>
      </trkpt>
      <trkpt lat="47.78457" lon="2.51116">
        <ele>147</ele>
        <time>2025-04-20T16:20:33Z</time>
      </trkpt>
      <trkpt lat="47.78358" lon="2.5081">
        <ele>145</ele>
        <time>2025-04-20T16:21:14Z</time>
      </trkpt>
      <trkpt lat="47.78346" lon="2.50661">
        <ele>147</ele>
        <time>2025-04-20T16:21:32Z</time>
      </trkpt>
      <trkpt lat="47.78341" lon="2.5059">
        <ele>147</ele>
        <time>2025-04-20T16:21:40Z</time>
      </trkpt>
      <trkpt lat="47.78342" lon="2.50531">
        <ele>147</ele>
        <time>2025-04-20T16:21:47Z</time>
      </trkpt>
      <trkpt lat="47.78338" lon="2.5037">
        <ele>146</ele>
        <time>2025-04-20T16:22:06Z</time>
      </trkpt>
      <trkpt lat="47.78339" lon="2.50329">
        <ele>146</ele>
        <time>2025-04-20T16:22:11Z</time>
      </trkpt>
      <trkpt lat="47.78342" lon="2.50291">
        <ele>146</ele>
        <time>2025-04-20T16:22:16Z</time>
      </trkpt>
      <trkpt lat="47.78347" lon="2.50261">
        <ele>146</ele>
        <time>2025-04-20T16:22:20Z</time>
      </trkpt>
      <trkpt lat="47.78358" lon="2.5021">
        <ele>145</ele>
        <time>2025-04-20T16:22:26Z</time>
      </trkpt>
      <trkpt lat="47.78375" lon="2.50146">
        <ele>144</ele>
        <time>2025-04-20T16:22:34Z</time>
      </trkpt>
      <trkpt lat="47.78383" lon="2.50111">
        <ele>145</ele>
        <time>2025-04-20T16:22:39Z</time>
      </trkpt>
      <trkpt lat="47.78396" lon="2.5003">
        <ele>144</ele>
        <time>2025-04-20T16:22:49Z</time>
      </trkpt>
      <trkpt lat="47.78408" lon="2.49942">
        <ele>144</ele>
        <time>2025-04-20T16:22:59Z</time>
      </trkpt>
      <trkpt lat="47.78422" lon="2.49829">
        <ele>145</ele>
        <time>2025-04-20T16:23:13Z</time>
      </trkpt>
      <trkpt lat="47.78426" lon="2.49742">
        <ele>145</ele>
        <time>2025-04-20T16:23:24Z</time>
      </trkpt>
      <trkpt lat="47.78432" lon="2.49661">
        <ele>144</ele>
        <time>2025-04-20T16:23:33Z</time>
      </trkpt>
      <trkpt lat="47.7844" lon="2.49597">
        <ele>144</ele>
        <time>2025-04-20T16:23:41Z</time>
      </trkpt>
      <trkpt lat="47.78444" lon="2.49579">
        <ele>144</ele>
        <time>2025-04-20T16:23:43Z</time>
      </trkpt>
      <trkpt lat="47.78452" lon="2.49538">
        <ele>143</ele>
        <time>2025-04-20T16:23:48Z</time>
      </trkpt>
      <trkpt lat="47.78463" lon="2.49492">
        <ele>142</ele>
        <time>2025-04-20T16:23:54Z</time>
      </trkpt>
      <trkpt lat="47.78475" lon="2.49452">
        <ele>142</ele>
        <time>2025-04-20T16:24:00Z</time>
      </trkpt>
      <trkpt lat="47.78493" lon="2.49409">
        <ele>141</ele>
        <time>2025-04-20T16:24:06Z</time>
      </trkpt>
      <trkpt lat="47.78499" lon="2.49382">
        <ele>141</ele>
        <time>2025-04-20T16:24:09Z</time>
      </trkpt>
      <trkpt lat="47.78501" lon="2.49359">
        <ele>142</ele>
        <time>2025-04-20T16:24:12Z</time>
      </trkpt>
      <trkpt lat="47.78501" lon="2.49335">
        <ele>142</ele>
        <time>2025-04-20T16:24:15Z</time>
      </trkpt>
      <trkpt lat="47.78497" lon="2.49272">
        <ele>141</ele>
        <time>2025-04-20T16:24:22Z</time>
      </trkpt>
      <trkpt lat="47.78487" lon="2.49188">
        <ele>141</ele>
        <time>2025-04-20T16:24:32Z</time>
      </trkpt>
      <trkpt lat="47.78474" lon="2.49104">
        <ele>141</ele>
        <time>2025-04-20T16:24:43Z</time>
      </trkpt>
      <trkpt lat="47.78453" lon="2.49008">
        <ele>140</ele>
        <time>2025-04-20T16:24:55Z</time>
      </trkpt>
      <trkpt lat="47.78443" lon="2.48967">
        <ele>141</ele>
        <time>2025-04-20T16:25:00Z</time>
      </trkpt>
      <trkpt lat="47.78417" lon="2.48841">
        <ele>143</ele>
        <time>2025-04-20T16:25:16Z</time>
      </trkpt>
      <trkpt lat="47.78356" lon="2.48614">
        <ele>148</ele>
        <time>2025-04-20T16:25:45Z</time>
      </trkpt>
      <trkpt lat="47.78351" lon="2.48587">
        <ele>149</ele>
        <time>2025-04-20T16:25:48Z</time>
      </trkpt>
      <trkpt lat="47.78345" lon="2.4853">
        <ele>150</ele>
        <time>2025-04-20T16:25:55Z</time>
      </trkpt>
      <trkpt lat="47.78337" lon="2.48405">
        <ele>149</ele>
        <time>2025-04-20T16:26:10Z</time>
      </trkpt>
      <trkpt lat="47.78323" lon="2.48168">
        <ele>147</ele>
        <time>2025-04-20T16:26:39Z</time>
      </trkpt>
      <trkpt lat="47.78324" lon="2.48151">
        <ele>148</ele>
        <time>2025-04-20T16:26:41Z</time>
      </trkpt>
      <trkpt lat="47.78334" lon="2.48043">
        <ele>150</ele>
        <time>2025-04-20T16:26:54Z</time>
      </trkpt>
      <trkpt lat="47.78355" lon="2.47858">
        <ele>151</ele>
        <time>2025-04-20T16:27:16Z</time>
      </trkpt>
      <trkpt lat="47.78367" lon="2.47727">
        <ele>149</ele>
        <time>2025-04-20T16:27:32Z</time>
      </trkpt>
      <trkpt lat="47.78386" lon="2.47501">
        <ele>150</ele>
        <time>2025-04-20T16:27:59Z</time>
      </trkpt>
      <trkpt lat="47.78389" lon="2.47466">
        <ele>149</ele>
        <time>2025-04-20T16:28:03Z</time>
      </trkpt>
      <trkpt lat="47.7839" lon="2.47445">
        <ele>148</ele>
        <time>2025-04-20T16:28:06Z</time>
      </trkpt>
      <trkpt lat="47.78348" lon="2.47416">
        <ele>145</ele>
        <time>2025-04-20T16:28:14Z</time>
      </trkpt>
      <trkpt lat="47.78146" lon="2.47279">
        <ele>144</ele>
        <time>2025-04-20T16:28:54Z</time>
      </trkpt>
      <trkpt lat="47.78129" lon="2.47271">
        <ele>144</ele>
        <time>2025-04-20T16:28:57Z</time>
      </trkpt>
      <trkpt lat="47.78117" lon="2.47259">
        <ele>144</ele>
        <time>2025-04-20T16:28:59Z</time>
      </trkpt>
      <trkpt lat="47.78109" lon="2.4724">
        <ele>144</ele>
        <time>2025-04-20T16:29:02Z</time>
      </trkpt>
      <trkpt lat="47.78084" lon="2.47176">
        <ele>143</ele>
        <time>2025-04-20T16:29:11Z</time>
      </trkpt>
      <trkpt lat="47.78051" lon="2.47087">
        <ele>142</ele>
        <time>2025-04-20T16:29:23Z</time>
      </trkpt>
      <trkpt lat="47.78042" lon="2.47066">
        <ele>141</ele>
        <time>2025-04-20T16:29:26Z</time>
      </trkpt>
      <trkpt lat="47.78027" lon="2.47039">
        <ele>141</ele>
        <time>2025-04-20T16:29:30Z</time>
      </trkpt>
      <trkpt lat="47.77963" lon="2.46948">
        <ele>139</ele>
        <time>2025-04-20T16:29:46Z</time>
      </trkpt>
      <trkpt lat="47.77951" lon="2.46933">
        <ele>139</ele>
        <time>2025-04-20T16:29:49Z</time>
      </trkpt>
      <trkpt lat="47.77886" lon="2.46864">
        <ele>136</ele>
        <time>2025-04-20T16:30:03Z</time>
      </trkpt>
      <trkpt lat="47.77877" lon="2.46853">
        <ele>135</ele>
        <time>2025-04-20T16:30:05Z</time>
      </trkpt>
      <trkpt lat="47.77873" lon="2.46849">
        <ele>135</ele>
        <time>2025-04-20T16:30:06Z</time>
      </trkpt>
      <trkpt lat="47.77872" lon="2.46847">
        <ele>135</ele>
        <time>2025-04-20T16:30:06Z</time>
      </trkpt>
      <trkpt lat="47.77882" lon="2.46834">
        <ele>135</ele>
        <time>2025-04-20T16:30:09Z</time>
      </trkpt>
      <trkpt lat="47.77932" lon="2.46765">
        <ele>136</ele>
        <time>2025-04-20T16:30:21Z</time>
      </trkpt>
      <trkpt lat="47.78009" lon="2.46671">
        <ele>136</ele>
        <time>2025-04-20T16:30:38Z</time>
      </trkpt>
      <trkpt lat="47.78061" lon="2.46599">
        <ele>136</ele>
        <time>2025-04-20T16:30:51Z</time>
      </trkpt>
      <trkpt lat="47.78066" lon="2.46589">
        <ele>136</ele>
        <time>2025-04-20T16:30:53Z</time>
      </trkpt>
      <trkpt lat="47.78069" lon="2.46576">
        <ele>136</ele>
        <time>2025-04-20T16:30:54Z</time>
      </trkpt>
      <trkpt lat="47.78069" lon="2.46566">
        <ele>136</ele>
        <time>2025-04-20T16:30:55Z</time>
      </trkpt>
      <trkpt lat="47.78058" lon="2.46505">
        <ele>135</ele>
        <time>2025-04-20T16:31:03Z</time>
      </trkpt>
      <trkpt lat="47.78051" lon="2.46473">
        <ele>135</ele>
        <time>2025-04-20T16:31:07Z</time>
      </trkpt>
      <trkpt lat="47.78036" lon="2.46434">
        <ele>135</ele>
        <time>2025-04-20T16:31:12Z</time>
      </trkpt>
      <trkpt lat="47.78013" lon="2.46397">
        <ele>135</ele>
        <time>2025-04-20T16:31:18Z</time>
      </trkpt>
      <trkpt lat="47.77978" lon="2.46354">
        <ele>133</ele>
        <time>2025-04-20T16:31:26Z</time>
      </trkpt>
      <trkpt lat="47.77943" lon="2.46317">
        <ele>131</ele>
        <time>2025-04-20T16:31:34Z</time>
      </trkpt>
      <trkpt lat="47.77928" lon="2.46301">
        <ele>130</ele>
        <time>2025-04-20T16:31:37Z</time>
      </trkpt>
      <trkpt lat="47.77891" lon="2.46255">
        <ele>130</ele>
        <time>2025-04-20T16:31:46Z</time>
      </trkpt>
      <trkpt lat="47.77888" lon="2.46249">
        <ele>130</ele>
        <time>2025-04-20T16:31:47Z</time>
      </trkpt>
      <trkpt lat="47.77879" lon="2.46219">
        <ele>130</ele>
        <time>2025-04-20T16:31:51Z</time>
      </trkpt>
      <trkpt lat="47.77865" lon="2.46167">
        <ele>131</ele>
        <time>2025-04-20T16:31:58Z</time>
      </trkpt>
      <trkpt lat="47.78058" lon="2.45882">
        <ele>131</ele>
        <time>2025-04-20T16:32:46Z</time>
      </trkpt>
      <trkpt lat="47.78421" lon="2.45331">
        <ele>129</ele>
        <time>2025-04-20T16:34:18Z</time>
      </trkpt>
      <trkpt lat="47.78454" lon="2.45282">
        <ele>128</ele>
        <time>2025-04-20T16:34:26Z</time>
      </trkpt>
      <trkpt lat="47.78549" lon="2.45139">
        <ele>124</ele>
        <time>2025-04-20T16:34:50Z</time>
      </trkpt>
      <trkpt lat="47.78615" lon="2.45039">
        <ele>125</ele>
        <time>2025-04-20T16:35:07Z</time>
      </trkpt>
      <trkpt lat="47.78624" lon="2.45026">
        <ele>125</ele>
        <time>2025-04-20T16:35:09Z</time>
      </trkpt>
      <trkpt lat="47.78664" lon="2.44966">
        <ele>128</ele>
        <time>2025-04-20T16:35:20Z</time>
      </trkpt>
      <trkpt lat="47.78969" lon="2.44507">
        <ele>134</ele>
        <time>2025-04-20T16:36:37Z</time>
      </trkpt>
      <trkpt lat="47.79238" lon="2.44103">
        <ele>132</ele>
        <time>2025-04-20T16:37:45Z</time>
      </trkpt>
      <trkpt lat="47.79254" lon="2.44078">
        <ele>132</ele>
        <time>2025-04-20T16:37:49Z</time>
      </trkpt>
      <trkpt lat="47.79173" lon="2.43962">
        <ele>128</ele>
        <time>2025-04-20T16:38:09Z</time>
      </trkpt>
      <trkpt lat="47.79064" lon="2.43811">
        <ele>125</ele>
        <time>2025-04-20T16:38:35Z</time>
      </trkpt>
      <trkpt lat="47.79107" lon="2.43726">
        <ele>125</ele>
        <time>2025-04-20T16:38:48Z</time>
      </trkpt>
      <trkpt lat="47.79137" lon="2.43662">
        <ele>125</ele>
        <time>2025-04-20T16:38:57Z</time>
      </trkpt>
      <trkpt lat="47.79142" lon="2.43652">
        <ele>125</ele>
        <time>2025-04-20T16:38:59Z</time>
      </trkpt>
      <trkpt lat="47.79175" lon="2.43605">
        <ele>127</ele>
        <time>2025-04-20T16:39:07Z</time>
      </trkpt>
      <trkpt lat="47.79236" lon="2.43528">
        <ele>127</ele>
        <time>2025-04-20T16:39:21Z</time>
      </trkpt>
      <trkpt lat="47.79243" lon="2.43523">
        <ele>127</ele>
        <time>2025-04-20T16:39:23Z</time>
      </trkpt>
      <trkpt lat="47.79267" lon="2.43519">
        <ele>128</ele>
        <time>2025-04-20T16:39:27Z</time>
      </trkpt>
      <trkpt lat="47.79272" lon="2.43505">
        <ele>128</ele>
        <time>2025-04-20T16:39:29Z</time>
      </trkpt>
      <trkpt lat="47.79297" lon="2.43418">
        <ele>124</ele>
        <time>2025-04-20T16:39:40Z</time>
      </trkpt>
      <trkpt lat="47.79304" lon="2.43407">
        <ele>124</ele>
        <time>2025-04-20T16:39:42Z</time>
      </trkpt>
      <trkpt lat="47.79313" lon="2.43398">
        <ele>124</ele>
        <time>2025-04-20T16:39:44Z</time>
      </trkpt>
      <trkpt lat="47.79325" lon="2.43393">
        <ele>125</ele>
        <time>2025-04-20T16:39:46Z</time>
      </trkpt>
      <trkpt lat="47.79418" lon="2.43379">
        <ele>127</ele>
        <time>2025-04-20T16:40:03Z</time>
      </trkpt>
      <trkpt lat="47.79435" lon="2.43374">
        <ele>126</ele>
        <time>2025-04-20T16:40:06Z</time>
      </trkpt>
      <trkpt lat="47.79448" lon="2.43366">
        <ele>126</ele>
        <time>2025-04-20T16:40:08Z</time>
      </trkpt>
      <trkpt lat="47.79458" lon="2.43357">
        <ele>126</ele>
        <time>2025-04-20T16:40:10Z</time>
      </trkpt>
      <trkpt lat="47.79472" lon="2.43343">
        <ele>125</ele>
        <time>2025-04-20T16:40:13Z</time>
      </trkpt>
      <trkpt lat="47.79486" lon="2.43325">
        <ele>125</ele>
        <time>2025-04-20T16:40:17Z</time>
      </trkpt>
      <trkpt lat="47.79509" lon="2.43293">
        <ele>126</ele>
        <time>2025-04-20T16:40:22Z</time>
      </trkpt>
      <trkpt lat="47.79675" lon="2.43038">
        <ele>129</ele>
        <time>2025-04-20T16:41:05Z</time>
      </trkpt>
      <trkpt lat="47.79738" lon="2.42877">
        <ele>129</ele>
        <time>2025-04-20T16:41:27Z</time>
      </trkpt>
      <trkpt lat="47.7976" lon="2.42833">
        <ele>130</ele>
        <time>2025-04-20T16:41:34Z</time>
      </trkpt>
      <trkpt lat="47.79827" lon="2.42707">
        <ele>128</ele>
        <time>2025-04-20T16:41:53Z</time>
      </trkpt>
      <trkpt lat="47.79841" lon="2.42665">
        <ele>127</ele>
        <time>2025-04-20T16:41:58Z</time>
      </trkpt>
      <trkpt lat="47.79849" lon="2.42656">
        <ele>127</ele>
        <time>2025-04-20T16:42:00Z</time>
      </trkpt>
      <trkpt lat="47.79858" lon="2.42652">
        <ele>126</ele>
        <time>2025-04-20T16:42:02Z</time>
      </trkpt>
      <trkpt lat="47.79867" lon="2.42652">
        <ele>127</ele>
        <time>2025-04-20T16:42:03Z</time>
      </trkpt>
      <trkpt lat="47.79876" lon="2.42656">
        <ele>127</ele>
        <time>2025-04-20T16:42:05Z</time>
      </trkpt>
      <trkpt lat="47.79947" lon="2.42704">
        <ele>128</ele>
        <time>2025-04-20T16:42:19Z</time>
      </trkpt>
      <trkpt lat="47.80018" lon="2.42756">
        <ele>129</ele>
        <time>2025-04-20T16:42:33Z</time>
      </trkpt>
      <trkpt lat="47.80038" lon="2.42767">
        <ele>129</ele>
        <time>2025-04-20T16:42:37Z</time>
      </trkpt>
      <trkpt lat="47.80044" lon="2.42771">
        <ele>128</ele>
        <time>2025-04-20T16:42:38Z</time>
      </trkpt>
      <trkpt lat="47.80045" lon="2.42768">
        <ele>128</ele>
        <time>2025-04-20T16:42:38Z</time>
      </trkpt>
      <trkpt lat="47.80123" lon="2.42616">
        <ele>129</ele>
        <time>2025-04-20T16:43:01Z</time>
      </trkpt>
      <trkpt lat="47.80313" lon="2.42248">
        <ele>127</ele>
        <time>2025-04-20T16:43:57Z</time>
      </trkpt>
      <trkpt lat="47.80314" lon="2.42245">
        <ele>127</ele>
        <time>2025-04-20T16:43:57Z</time>
      </trkpt>
      <trkpt lat="47.80313" lon="2.42248">
        <ele>127</ele>
        <time>2025-04-20T16:43:58Z</time>
      </trkpt>
      <trkpt lat="47.80341" lon="2.42277">
        <ele>127</ele>
        <time>2025-04-20T16:44:04Z</time>
      </trkpt>
      <trkpt lat="47.80408" lon="2.42381">
        <ele>128</ele>
        <time>2025-04-20T16:44:21Z</time>
      </trkpt>
      <trkpt lat="47.80448" lon="2.42413">
        <ele>131</ele>
        <time>2025-04-20T16:44:29Z</time>
      </trkpt>
      <trkpt lat="47.80458" lon="2.42419">
        <ele>132</ele>
        <time>2025-04-20T16:44:31Z</time>
      </trkpt>
      <trkpt lat="47.80472" lon="2.42427">
        <ele>134</ele>
        <time>2025-04-20T16:44:34Z</time>
      </trkpt>
      <trkpt lat="47.80478" lon="2.42428">
        <ele>134</ele>
        <time>2025-04-20T16:44:35Z</time>
      </trkpt>
      <trkpt lat="47.80485" lon="2.42425">
        <ele>135</ele>
        <time>2025-04-20T16:44:36Z</time>
      </trkpt>
      <trkpt lat="47.80504" lon="2.42407">
        <ele>135</ele>
        <time>2025-04-20T16:44:40Z</time>
      </trkpt>
      <trkpt lat="47.8052" lon="2.42396">
        <ele>134</ele>
        <time>2025-04-20T16:44:43Z</time>
      </trkpt>
      <trkpt lat="47.80541" lon="2.42388">
        <ele>135</ele>
        <time>2025-04-20T16:44:47Z</time>
      </trkpt>
      <trkpt lat="47.80557" lon="2.42387">
        <ele>135</ele>
        <time>2025-04-20T16:44:50Z</time>
      </trkpt>
      <trkpt lat="47.806" lon="2.42405">
        <ele>137</ele>
        <time>2025-04-20T16:44:58Z</time>
      </trkpt>
      <trkpt lat="47.80613" lon="2.42408">
        <ele>137</ele>
        <time>2025-04-20T16:45:00Z</time>
      </trkpt>
      <trkpt lat="47.80627" lon="2.42408">
        <ele>138</ele>
        <time>2025-04-20T16:45:03Z</time>
      </trkpt>
      <trkpt lat="47.80662" lon="2.424">
        <ele>138</ele>
        <time>2025-04-20T16:45:09Z</time>
      </trkpt>
      <trkpt lat="47.80675" lon="2.42398">
        <ele>139</ele>
        <time>2025-04-20T16:45:11Z</time>
      </trkpt>
      <trkpt lat="47.80709" lon="2.42393">
        <ele>140</ele>
        <time>2025-04-20T16:45:17Z</time>
      </trkpt>
      <trkpt lat="47.80762" lon="2.42397">
        <ele>141</ele>
        <time>2025-04-20T16:45:27Z</time>
      </trkpt>
      <trkpt lat="47.80789" lon="2.42404">
        <ele>142</ele>
        <time>2025-04-20T16:45:32Z</time>
      </trkpt>
      <trkpt lat="47.8082" lon="2.42406">
        <ele>143</ele>
        <time>2025-04-20T16:45:37Z</time>
      </trkpt>
      <trkpt lat="47.80837" lon="2.4241">
        <ele>143</ele>
        <time>2025-04-20T16:45:40Z</time>
      </trkpt>
      <trkpt lat="47.80956" lon="2.42458">
        <ele>146</ele>
        <time>2025-04-20T16:46:02Z</time>
      </trkpt>
      <trkpt lat="47.80964" lon="2.42461">
        <ele>147</ele>
        <time>2025-04-20T16:46:04Z</time>
      </trkpt>
      <trkpt lat="47.81008" lon="2.42474">
        <ele>146</ele>
        <time>2025-04-20T16:46:11Z</time>
      </trkpt>
      <trkpt lat="47.81045" lon="2.42473">
        <ele>144</ele>
        <time>2025-04-20T16:46:18Z</time>
      </trkpt>
      <trkpt lat="47.81109" lon="2.42468">
        <ele>141</ele>
        <time>2025-04-20T16:46:29Z</time>
      </trkpt>
      <trkpt lat="47.81143" lon="2.42448">
        <ele>139</ele>
        <time>2025-04-20T16:46:36Z</time>
      </trkpt>
      <trkpt lat="47.81171" lon="2.42425">
        <ele>136</ele>
        <time>2025-04-20T16:46:42Z</time>
      </trkpt>
      <trkpt lat="47.81175" lon="2.42415">
        <ele>136</ele>
        <time>2025-04-20T16:46:43Z</time>
      </trkpt>
      <trkpt lat="47.81164" lon="2.42367">
        <ele>136</ele>
        <time>2025-04-20T16:46:49Z</time>
      </trkpt>
      <trkpt lat="47.81168" lon="2.42366">
        <ele>136</ele>
        <time>2025-04-20T16:46:50Z</time>
      </trkpt>
      <trkpt lat="47.81188" lon="2.42353">
        <ele>136</ele>
        <time>2025-04-20T16:46:54Z</time>
      </trkpt>
      <trkpt lat="47.81223" lon="2.4232">
        <ele>137</ele>
        <time>2025-04-20T16:47:01Z</time>
      </trkpt>
      <trkpt lat="47.81352" lon="2.42157">
        <ele>140</ele>
        <time>2025-04-20T16:47:31Z</time>
      </trkpt>
      <trkpt lat="47.81406" lon="2.42089">
        <ele>136</ele>
        <time>2025-04-20T16:47:44Z</time>
      </trkpt>
      <trkpt lat="47.81436" lon="2.42047">
        <ele>133</ele>
        <time>2025-04-20T16:47:51Z</time>
      </trkpt>
      <trkpt lat="47.81454" lon="2.42016">
        <ele>132</ele>
        <time>2025-04-20T16:47:56Z</time>
      </trkpt>
      <trkpt lat="47.81461" lon="2.41998">
        <ele>132</ele>
        <time>2025-04-20T16:47:59Z</time>
      </trkpt>
      <trkpt lat="47.81466" lon="2.41983">
        <ele>132</ele>
        <time>2025-04-20T16:48:01Z</time>
      </trkpt>
      <trkpt lat="47.81472" lon="2.41955">
        <ele>131</ele>
        <time>2025-04-20T16:48:04Z</time>
      </trkpt>
      <trkpt lat="47.81481" lon="2.41903">
        <ele>130</ele>
        <time>2025-04-20T16:48:10Z</time>
      </trkpt>
      <trkpt lat="47.81484" lon="2.41863">
        <ele>131</ele>
        <time>2025-04-20T16:48:15Z</time>
      </trkpt>
      <trkpt lat="47.81489" lon="2.41767">
        <ele>132</ele>
        <time>2025-04-20T16:48:27Z</time>
      </trkpt>
      <trkpt lat="47.81491" lon="2.41752">
        <ele>132</ele>
        <time>2025-04-20T16:48:29Z</time>
      </trkpt>
      <trkpt lat="47.81494" lon="2.41739">
        <ele>132</ele>
        <time>2025-04-20T16:48:30Z</time>
      </trkpt>
      <trkpt lat="47.815" lon="2.41725">
        <ele>132</ele>
        <time>2025-04-20T16:48:32Z</time>
      </trkpt>
      <trkpt lat="47.81512" lon="2.41706">
        <ele>132</ele>
        <time>2025-04-20T16:48:35Z</time>
      </trkpt>
      <trkpt lat="47.81591" lon="2.41614">
        <ele>132</ele>
        <time>2025-04-20T16:48:53Z</time>
      </trkpt>
      <trkpt lat="47.81635" lon="2.41562">
        <ele>133</ele>
        <time>2025-04-20T16:49:03Z</time>
      </trkpt>
      <trkpt lat="47.81679" lon="2.41636">
        <ele>134</ele>
        <time>2025-04-20T16:49:15Z</time>
      </trkpt>
      <trkpt lat="47.81784" lon="2.41464">
        <ele>139</ele>
        <time>2025-04-20T16:49:43Z</time>
      </trkpt>
      <trkpt lat="47.81838" lon="2.41374">
        <ele>139</ele>
        <time>2025-04-20T16:49:57Z</time>
      </trkpt>
      <trkpt lat="47.81965" lon="2.41171">
        <ele>139</ele>
        <time>2025-04-20T16:50:30Z</time>
      </trkpt>
      <trkpt lat="47.81969" lon="2.41166">
        <ele>139</ele>
        <time>2025-04-20T16:50:31Z</time>
      </trkpt>
      <trkpt lat="47.81998" lon="2.40878">
        <ele>141</ele>
        <time>2025-04-20T16:51:06Z</time>
      </trkpt>
      <trkpt lat="47.82008" lon="2.40778">
        <ele>142</ele>
        <time>2025-04-20T16:51:18Z</time>
      </trkpt>
      <trkpt lat="47.82031" lon="2.40794">
        <ele>142</ele>
        <time>2025-04-20T16:51:23Z</time>
      </trkpt>
      <trkpt lat="47.82058" lon="2.40817">
        <ele>142</ele>
        <time>2025-04-20T16:51:28Z</time>
      </trkpt>
      <trkpt lat="47.82006" lon="2.40408">
        <ele>140</ele>
        <time>2025-04-20T16:52:18Z</time>
      </trkpt>
      <trkpt lat="47.82004" lon="2.40399">
        <ele>140</ele>
        <time>2025-04-20T16:52:19Z</time>
      </trkpt>
      <trkpt lat="47.81997" lon="2.40375">
        <ele>140</ele>
        <time>2025-04-20T16:52:22Z</time>
      </trkpt>
      <trkpt lat="47.81987" lon="2.40351">
        <ele>140</ele>
        <time>2025-04-20T16:52:26Z</time>
      </trkpt>
      <trkpt lat="47.81978" lon="2.40332">
        <ele>140</ele>
        <time>2025-04-20T16:52:28Z</time>
      </trkpt>
      <trkpt lat="47.81968" lon="2.40318">
        <ele>140</ele>
        <time>2025-04-20T16:52:31Z</time>
      </trkpt>
      <trkpt lat="47.81908" lon="2.4025">
        <ele>138</ele>
        <time>2025-04-20T16:52:44Z</time>
      </trkpt>
      <trkpt lat="47.81884" lon="2.40223">
        <ele>138</ele>
        <time>2025-04-20T16:52:50Z</time>
      </trkpt>
      <trkpt lat="47.81865" lon="2.40202">
        <ele>137</ele>
        <time>2025-04-20T16:52:54Z</time>
      </trkpt>
      <trkpt lat="47.81865" lon="2.40186">
        <ele>137</ele>
        <time>2025-04-20T16:52:56Z</time>
      </trkpt>
      <trkpt lat="47.81876" lon="2.40081">
        <ele>137</ele>
        <time>2025-04-20T16:53:08Z</time>
      </trkpt>
      <trkpt lat="47.81886" lon="2.39999">
        <ele>138</ele>
        <time>2025-04-20T16:53:18Z</time>
      </trkpt>
      <trkpt lat="47.81934" lon="2.4">
        <ele>138</ele>
        <time>2025-04-20T16:53:27Z</time>
      </trkpt>
      <trkpt lat="47.81974" lon="2.40001">
        <ele>138</ele>
        <time>2025-04-20T16:53:34Z</time>
      </trkpt>
      <trkpt lat="47.81984" lon="2.40001">
        <ele>138</ele>
        <time>2025-04-20T16:53:36Z</time>
      </trkpt>
      <trkpt lat="47.82177" lon="2.39987">
        <ele>136</ele>
        <time>2025-04-20T16:54:10Z</time>
      </trkpt>
      <trkpt lat="47.82188" lon="2.39985">
        <ele>136</ele>
        <time>2025-04-20T16:54:12Z</time>
      </trkpt>
      <trkpt lat="47.822" lon="2.3998">
        <ele>135</ele>
        <time>2025-04-20T16:54:14Z</time>
      </trkpt>
      <trkpt lat="47.82211" lon="2.39973">
        <ele>135</ele>
        <time>2025-04-20T16:54:16Z</time>
      </trkpt>
      <trkpt lat="47.82221" lon="2.39963">
        <ele>134</ele>
        <time>2025-04-20T16:54:19Z</time>
      </trkpt>
      <trkpt lat="47.82227" lon="2.39956">
        <ele>133</ele>
        <time>2025-04-20T16:54:20Z</time>
      </trkpt>
      <trkpt lat="47.82235" lon="2.39942">
        <ele>133</ele>
        <time>2025-04-20T16:54:22Z</time>
      </trkpt>
      <trkpt lat="47.82267" lon="2.39877">
        <ele>131</ele>
        <time>2025-04-20T16:54:32Z</time>
      </trkpt>
      <trkpt lat="47.82279" lon="2.39865">
        <ele>131</ele>
        <time>2025-04-20T16:54:34Z</time>
      </trkpt>
      <trkpt lat="47.82286" lon="2.3986">
        <ele>132</ele>
        <time>2025-04-20T16:54:36Z</time>
      </trkpt>
      <trkpt lat="47.82298" lon="2.3986">
        <ele>132</ele>
        <time>2025-04-20T16:54:38Z</time>
      </trkpt>
      <trkpt lat="47.82358" lon="2.39906">
        <ele>133</ele>
        <time>2025-04-20T16:54:50Z</time>
      </trkpt>
      <trkpt lat="47.82369" lon="2.3991">
        <ele>134</ele>
        <time>2025-04-20T16:54:52Z</time>
      </trkpt>
      <trkpt lat="47.82375" lon="2.39911">
        <ele>134</ele>
        <time>2025-04-20T16:54:53Z</time>
      </trkpt>
      <trkpt lat="47.82387" lon="2.39905">
        <ele>134</ele>
        <time>2025-04-20T16:54:55Z</time>
      </trkpt>
      <trkpt lat="47.82401" lon="2.39892">
        <ele>134</ele>
        <time>2025-04-20T16:54:58Z</time>
      </trkpt>
      <trkpt lat="47.8241" lon="2.39874">
        <ele>134</ele>
        <time>2025-04-20T16:55:01Z</time>
      </trkpt>
      <trkpt lat="47.82441" lon="2.39773">
        <ele>133</ele>
        <time>2025-04-20T16:55:14Z</time>
      </trkpt>
      <trkpt lat="47.82443" lon="2.39763">
        <ele>133</ele>
        <time>2025-04-20T16:55:15Z</time>
      </trkpt>
      <trkpt lat="47.82442" lon="2.39742">
        <ele>133</ele>
        <time>2025-04-20T16:55:18Z</time>
      </trkpt>
      <trkpt lat="47.82423" lon="2.39637">
        <ele>131</ele>
        <time>2025-04-20T16:55:31Z</time>
      </trkpt>
      <trkpt lat="47.82425" lon="2.39619">
        <ele>132</ele>
        <time>2025-04-20T16:55:33Z</time>
      </trkpt>
      <trkpt lat="47.82431" lon="2.39604">
        <ele>132</ele>
        <time>2025-04-20T16:55:35Z</time>
      </trkpt>
      <trkpt lat="47.82491" lon="2.39497">
        <ele>134</ele>
        <time>2025-04-20T16:55:52Z</time>
      </trkpt>
      <trkpt lat="47.8256" lon="2.39349">
        <ele>131</ele>
        <time>2025-04-20T16:56:13Z</time>
      </trkpt>
      <trkpt lat="47.82597" lon="2.39314">
        <ele>131</ele>
        <time>2025-04-20T16:56:21Z</time>
      </trkpt>
      <trkpt lat="47.82625" lon="2.39287">
        <ele>131</ele>
        <time>2025-04-20T16:56:27Z</time>
      </trkpt>
      <trkpt lat="47.82643" lon="2.39269">
        <ele>132</ele>
        <time>2025-04-20T16:56:31Z</time>
      </trkpt>
      <trkpt lat="47.82662" lon="2.39244">
        <ele>132</ele>
        <time>2025-04-20T16:56:35Z</time>
      </trkpt>
      <trkpt lat="47.82724" lon="2.39152">
        <ele>132</ele>
        <time>2025-04-20T16:56:51Z</time>
      </trkpt>
      <trkpt lat="47.82813" lon="2.39025">
        <ele>133</ele>
        <time>2025-04-20T16:57:13Z</time>
      </trkpt>
      <trkpt lat="47.82821" lon="2.39011">
        <ele>133</ele>
        <time>2025-04-20T16:57:15Z</time>
      </trkpt>
      <trkpt lat="47.82828" lon="2.38993">
        <ele>133</ele>
        <time>2025-04-20T16:57:18Z</time>
      </trkpt>
      <trkpt lat="47.82835" lon="2.38964">
        <ele>134</ele>
        <time>2025-04-20T16:57:21Z</time>
      </trkpt>
      <trkpt lat="47.82839" lon="2.38928">
        <ele>133</ele>
        <time>2025-04-20T16:57:26Z</time>
      </trkpt>
      <trkpt lat="47.82844" lon="2.38903">
        <ele>132</ele>
        <time>2025-04-20T16:57:29Z</time>
      </trkpt>
      <trkpt lat="47.82855" lon="2.38876">
        <ele>131</ele>
        <time>2025-04-20T16:57:32Z</time>
      </trkpt>
      <trkpt lat="47.82863" lon="2.38864">
        <ele>131</ele>
        <time>2025-04-20T16:57:34Z</time>
      </trkpt>
      <trkpt lat="47.8287" lon="2.38849">
        <ele>130</ele>
        <time>2025-04-20T16:57:37Z</time>
      </trkpt>
      <trkpt lat="47.82874" lon="2.38825">
        <ele>129</ele>
        <time>2025-04-20T16:57:40Z</time>
      </trkpt>
      <trkpt lat="47.82898" lon="2.38565">
        <ele>125</ele>
        <time>2025-04-20T16:58:11Z</time>
      </trkpt>
      <trkpt lat="47.82973" lon="2.3825">
        <ele>131</ele>
        <time>2025-04-20T16:58:51Z</time>
      </trkpt>
      <trkpt lat="47.83003" lon="2.38137">
        <ele>131</ele>
        <time>2025-04-20T16:59:05Z</time>
      </trkpt>
      <trkpt lat="47.83019" lon="2.38085">
        <ele>131</ele>
        <time>2025-04-20T16:59:12Z</time>
      </trkpt>
      <trkpt lat="47.83023" lon="2.38074">
        <ele>132</ele>
        <time>2025-04-20T16:59:14Z</time>
      </trkpt>
      <trkpt lat="47.83032" lon="2.3806">
        <ele>132</ele>
        <time>2025-04-20T16:59:16Z</time>
      </trkpt>
      <trkpt lat="47.83049" lon="2.38041">
        <ele>133</ele>
        <time>2025-04-20T16:59:20Z</time>
      </trkpt>
      <trkpt lat="47.83081" lon="2.38009">
        <ele>135</ele>
        <time>2025-04-20T16:59:27Z</time>
      </trkpt>
      <trkpt lat="47.83097" lon="2.37991">
        <ele>135</ele>
        <time>2025-04-20T16:59:30Z</time>
      </trkpt>
      <trkpt lat="47.83107" lon="2.37976">
        <ele>134</ele>
        <time>2025-04-20T16:59:33Z</time>
      </trkpt>
      <trkpt lat="47.83113" lon="2.37962">
        <ele>134</ele>
        <time>2025-04-20T16:59:35Z</time>
      </trkpt>
      <trkpt lat="47.83121" lon="2.37925">
        <ele>132</ele>
        <time>2025-04-20T16:59:39Z</time>
      </trkpt>
      <trkpt lat="47.83129" lon="2.37875">
        <ele>132</ele>
        <time>2025-04-20T16:59:46Z</time>
      </trkpt>
      <trkpt lat="47.83135" lon="2.37819">
        <ele>131</ele>
        <time>2025-04-20T16:59:52Z</time>
      </trkpt>
      <trkpt lat="47.83142" lon="2.37787">
        <ele>132</ele>
        <time>2025-04-20T16:59:56Z</time>
      </trkpt>
      <trkpt lat="47.83153" lon="2.3775">
        <ele>132</ele>
        <time>2025-04-20T17:00:01Z</time>
      </trkpt>
      <trkpt lat="47.83162" lon="2.37713">
        <ele>133</ele>
        <time>2025-04-20T17:00:06Z</time>
      </trkpt>
      <trkpt lat="47.8316" lon="2.377">
        <ele>133</ele>
        <time>2025-04-20T17:00:07Z</time>
      </trkpt>
      <trkpt lat="47.83109" lon="2.37567">
        <ele>129</ele>
        <time>2025-04-20T17:00:26Z</time>
      </trkpt>
      <trkpt lat="47.83085" lon="2.37501">
        <ele>128</ele>
        <time>2025-04-20T17:00:35Z</time>
      </trkpt>
      <trkpt lat="47.83064" lon="2.37454">
        <ele>127</ele>
        <time>2025-04-20T17:00:41Z</time>
      </trkpt>
      <trkpt lat="47.83033" lon="2.37378">
        <ele>127</ele>
        <time>2025-04-20T17:00:52Z</time>
      </trkpt>
      <trkpt lat="47.83027" lon="2.37357">
        <ele>127</ele>
        <time>2025-04-20T17:00:55Z</time>
      </trkpt>
      <trkpt lat="47.83024" lon="2.37334">
        <ele>128</ele>
        <time>2025-04-20T17:00:58Z</time>
      </trkpt>
      <trkpt lat="47.83015" lon="2.37224">
        <ele>128</ele>
        <time>2025-04-20T17:01:11Z</time>
      </trkpt>
      <trkpt lat="47.8301" lon="2.37174">
        <ele>129</ele>
        <time>2025-04-20T17:01:17Z</time>
      </trkpt>
      <trkpt lat="47.83006" lon="2.37116">
        <ele>129</ele>
        <time>2025-04-20T17:01:24Z</time>
      </trkpt>
      <trkpt lat="47.83" lon="2.37084">
        <ele>129</ele>
        <time>2025-04-20T17:01:28Z</time>
      </trkpt>
      <trkpt lat="47.82983" lon="2.37052">
        <ele>129</ele>
        <time>2025-04-20T17:01:33Z</time>
      </trkpt>
      <trkpt lat="47.82979" lon="2.37047">
        <ele>129</ele>
        <time>2025-04-20T17:01:34Z</time>
      </trkpt>
      <trkpt lat="47.82949" lon="2.37006">
        <ele>128</ele>
        <time>2025-04-20T17:01:41Z</time>
      </trkpt>
      <trkpt lat="47.82931" lon="2.36979">
        <ele>128</ele>
        <time>2025-04-20T17:01:45Z</time>
      </trkpt>
      <trkpt lat="47.82919" lon="2.36965">
        <ele>128</ele>
        <time>2025-04-20T17:01:48Z</time>
      </trkpt>
      <trkpt lat="47.82897" lon="2.36948">
        <ele>127</ele>
        <time>2025-04-20T17:01:53Z</time>
      </trkpt>
      <trkpt lat="47.82877" lon="2.36932">
        <ele>126</ele>
        <time>2025-04-20T17:01:57Z</time>
      </trkpt>
      <trkpt lat="47.82873" lon="2.36925">
        <ele>126</ele>
        <time>2025-04-20T17:01:58Z</time>
      </trkpt>
      <trkpt lat="47.8283" lon="2.36898">
        <ele>127</ele>
        <time>2025-04-20T17:02:06Z</time>
      </trkpt>
      <trkpt lat="47.82759" lon="2.36842">
        <ele>125</ele>
        <time>2025-04-20T17:02:20Z</time>
      </trkpt>
      <trkpt lat="47.82758" lon="2.36845">
        <ele>125</ele>
        <time>2025-04-20T17:02:21Z</time>
      </trkpt>
      <trkpt lat="47.82759" lon="2.36842">
        <ele>125</ele>
        <time>2025-04-20T17:02:21Z</time>
      </trkpt>
      <trkpt lat="47.82772" lon="2.36773">
        <ele>125</ele>
        <time>2025-04-20T17:02:30Z</time>
      </trkpt>
      <trkpt lat="47.82776" lon="2.36745">
        <ele>124</ele>
        <time>2025-04-20T17:02:33Z</time>
      </trkpt>
      <trkpt lat="47.82779" lon="2.36696">
        <ele>123</ele>
        <time>2025-04-20T17:02:39Z</time>
      </trkpt>
      <trkpt lat="47.82784" lon="2.36666">
        <ele>122</ele>
        <time>2025-04-20T17:02:43Z</time>
      </trkpt>
      <trkpt lat="47.82792" lon="2.36639">
        <ele>122</ele>
        <time>2025-04-20T17:02:46Z</time>
      </trkpt>
      <trkpt lat="47.82828" lon="2.36535">
        <ele>123</ele>
        <time>2025-04-20T17:03:00Z</time>
      </trkpt>
      <trkpt lat="47.82831" lon="2.36532">
        <ele>124</ele>
        <time>2025-04-20T17:03:01Z</time>
      </trkpt>
      <trkpt lat="47.82834" lon="2.36529">
        <ele>124</ele>
        <time>2025-04-20T17:03:01Z</time>
      </trkpt>
      <trkpt lat="47.82838" lon="2.36528">
        <ele>124</ele>
        <time>2025-04-20T17:03:02Z</time>
      </trkpt>
      <trkpt lat="47.82844" lon="2.3653">
        <ele>124</ele>
        <time>2025-04-20T17:03:03Z</time>
      </trkpt>
      <trkpt lat="47.82849" lon="2.36523">
        <ele>124</ele>
        <time>2025-04-20T17:03:04Z</time>
      </trkpt>
      <trkpt lat="47.82865" lon="2.36485">
        <ele>124</ele>
        <time>2025-04-20T17:03:10Z</time>
      </trkpt>
      <trkpt lat="47.82849" lon="2.36473">
        <ele>123</ele>
        <time>2025-04-20T17:03:13Z</time>
      </trkpt>
      <trkpt lat="47.82805" lon="2.36442">
        <ele>119</ele>
        <time>2025-04-20T17:03:22Z</time>
      </trkpt>
      <trkpt lat="47.82723" lon="2.36378">
        <ele>113</ele>
        <time>2025-04-20T17:03:38Z</time>
      </trkpt>
      <trkpt lat="47.827" lon="2.36362">
        <ele>112</ele>
        <time>2025-04-20T17:03:43Z</time>
      </trkpt>
      <trkpt lat="47.82607" lon="2.36293">
        <ele>110</ele>
        <time>2025-04-20T17:04:01Z</time>
      </trkpt>
      <trkpt lat="47.82362" lon="2.36111">
        <ele>110</ele>
        <time>2025-04-20T17:04:50Z</time>
      </trkpt>
      <trkpt lat="47.82358" lon="2.36108">
        <ele>110</ele>
        <time>2025-04-20T17:04:51Z</time>
      </trkpt>
      <trkpt lat="47.82351" lon="2.36096">
        <ele>110</ele>
        <time>2025-04-20T17:04:53Z</time>
      </trkpt>
      <trkpt lat="47.8235" lon="2.36084">
        <ele>110</ele>
        <time>2025-04-20T17:04:54Z</time>
      </trkpt>
      <trkpt lat="47.82349" lon="2.36069">
        <ele>110</ele>
        <time>2025-04-20T17:04:56Z</time>
      </trkpt>
      <trkpt lat="47.82372" lon="2.35654">
        <ele>111</ele>
        <time>2025-04-20T17:05:46Z</time>
      </trkpt>
      <trkpt lat="47.82375" lon="2.35577">
        <ele>111</ele>
        <time>2025-04-20T17:05:55Z</time>
      </trkpt>
      <trkpt lat="47.82376" lon="2.35542">
        <ele>111</ele>
        <time>2025-04-20T17:05:59Z</time>
      </trkpt>
      <trkpt lat="47.82377" lon="2.35521">
        <ele>111</ele>
        <time>2025-04-20T17:06:01Z</time>
      </trkpt>
      <trkpt lat="47.8236" lon="2.35371">
        <ele>110</ele>
        <time>2025-04-20T17:06:20Z</time>
      </trkpt>
      <trkpt lat="47.82358" lon="2.35361">
        <ele>110</ele>
        <time>2025-04-20T17:06:21Z</time>
      </trkpt>
      <trkpt lat="47.82353" lon="2.35337">
        <ele>109</ele>
        <time>2025-04-20T17:06:24Z</time>
      </trkpt>
      <trkpt lat="47.8227" lon="2.35092">
        <ele>109</ele>
        <time>2025-04-20T17:06:57Z</time>
      </trkpt>
      <trkpt lat="47.82223" lon="2.34965">
        <ele>110</ele>
        <time>2025-04-20T17:07:14Z</time>
      </trkpt>
      <trkpt lat="47.82188" lon="2.34882">
        <ele>110</ele>
        <time>2025-04-20T17:07:26Z</time>
      </trkpt>
      <trkpt lat="47.8217" lon="2.3485">
        <ele>111</ele>
        <time>2025-04-20T17:07:31Z</time>
      </trkpt>
      <trkpt lat="47.82147" lon="2.34812">
        <ele>111</ele>
        <time>2025-04-20T17:07:37Z</time>
      </trkpt>
      <trkpt lat="47.8208" lon="2.34706">
        <ele>110</ele>
        <time>2025-04-20T17:07:54Z</time>
      </trkpt>
      <trkpt lat="47.81992" lon="2.34589">
        <ele>108</ele>
        <time>2025-04-20T17:08:15Z</time>
      </trkpt>
      <trkpt lat="47.81986" lon="2.34582">
        <ele>108</ele>
        <time>2025-04-20T17:08:17Z</time>
      </trkpt>
      <trkpt lat="47.81981" lon="2.34578">
        <ele>109</ele>
        <time>2025-04-20T17:08:18Z</time>
      </trkpt>
      <trkpt lat="47.81969" lon="2.3457">
        <ele>109</ele>
        <time>2025-04-20T17:08:20Z</time>
      </trkpt>
      <trkpt lat="47.8194" lon="2.34565">
        <ele>110</ele>
        <time>2025-04-20T17:08:25Z</time>
      </trkpt>
      <trkpt lat="47.81898" lon="2.3455">
        <ele>110</ele>
        <time>2025-04-20T17:08:33Z</time>
      </trkpt>
      <trkpt lat="47.81864" lon="2.34532">
        <ele>109</ele>
        <time>2025-04-20T17:08:39Z</time>
      </trkpt>
      <trkpt lat="47.81849" lon="2.34522">
        <ele>109</ele>
        <time>2025-04-20T17:08:42Z</time>
      </trkpt>
      <trkpt lat="47.81851" lon="2.34518">
        <ele>109</ele>
        <time>2025-04-20T17:08:43Z</time>
      </trkpt>
      <trkpt lat="47.81881" lon="2.34461">
        <ele>109</ele>
        <time>2025-04-20T17:08:51Z</time>
      </trkpt>
      <trkpt lat="47.81893" lon="2.34434">
        <ele>109</ele>
        <time>2025-04-20T17:08:55Z</time>
      </trkpt>
      <trkpt lat="47.81949" lon="2.34297">
        <ele>110</ele>
        <time>2025-04-20T17:09:14Z</time>
      </trkpt>
      <trkpt lat="47.81973" lon="2.34233">
        <ele>110</ele>
        <time>2025-04-20T17:09:23Z</time>
      </trkpt>
      <trkpt lat="47.81979" lon="2.34215">
        <ele>110</ele>
        <time>2025-04-20T17:09:26Z</time>
      </trkpt>
      <trkpt lat="47.81983" lon="2.34197">
        <ele>110</ele>
        <time>2025-04-20T17:09:28Z</time>
      </trkpt>
      <trkpt lat="47.82005" lon="2.34094">
        <ele>110</ele>
        <time>2025-04-20T17:09:41Z</time>
      </trkpt>
      <trkpt lat="47.82015" lon="2.34059">
        <ele>110</ele>
        <time>2025-04-20T17:09:45Z</time>
      </trkpt>
      <trkpt lat="47.82027" lon="2.34022">
        <ele>109</ele>
        <time>2025-04-20T17:09:50Z</time>
      </trkpt>
      <trkpt lat="47.82049" lon="2.3397">
        <ele>109</ele>
        <time>2025-04-20T17:09:58Z</time>
      </trkpt>
      <trkpt lat="47.8207" lon="2.33925">
        <ele>109</ele>
        <time>2025-04-20T17:10:04Z</time>
      </trkpt>
      <trkpt lat="47.82108" lon="2.33857">
        <ele>108</ele>
        <time>2025-04-20T17:10:15Z</time>
      </trkpt>
      <trkpt lat="47.82244" lon="2.33629">
        <ele>109</ele>
        <time>2025-04-20T17:10:51Z</time>
      </trkpt>
      <trkpt lat="47.82297" lon="2.33546">
        <ele>111</ele>
        <time>2025-04-20T17:11:05Z</time>
      </trkpt>
      <trkpt lat="47.82309" lon="2.33531">
        <ele>110</ele>
        <time>2025-04-20T17:11:08Z</time>
      </trkpt>
      <trkpt lat="47.8232" lon="2.3352">
        <ele>110</ele>
        <time>2025-04-20T17:11:10Z</time>
      </trkpt>
      <trkpt lat="47.82449" lon="2.33423">
        <ele>109</ele>
        <time>2025-04-20T17:11:36Z</time>
      </trkpt>
      <trkpt lat="47.82464" lon="2.33412">
        <ele>108</ele>
        <time>2025-04-20T17:11:39Z</time>
      </trkpt>
      <trkpt lat="47.82469" lon="2.33404">
        <ele>108</ele>
        <time>2025-04-20T17:11:40Z</time>
      </trkpt>
      <trkpt lat="47.82472" lon="2.33396">
        <ele>108</ele>
        <time>2025-04-20T17:11:41Z</time>
      </trkpt>
      <trkpt lat="47.82473" lon="2.33389">
        <ele>108</ele>
        <time>2025-04-20T17:11:42Z</time>
      </trkpt>
      <trkpt lat="47.82471" lon="2.33382">
        <ele>108</ele>
        <time>2025-04-20T17:11:43Z</time>
      </trkpt>
      <trkpt lat="47.82428" lon="2.33283">
        <ele>108</ele>
        <time>2025-04-20T17:11:57Z</time>
      </trkpt>
      <trkpt lat="47.82416" lon="2.33262">
        <ele>108</ele>
        <time>2025-04-20T17:12:00Z</time>
      </trkpt>
      <trkpt lat="47.82403" lon="2.33247">
        <ele>108</ele>
        <time>2025-04-20T17:12:03Z</time>
      </trkpt>
      <trkpt lat="47.82392" lon="2.33236">
        <ele>108</ele>
        <time>2025-04-20T17:12:05Z</time>
      </trkpt>
      <trkpt lat="47.8232" lon="2.33192">
        <ele>109</ele>
        <time>2025-04-20T17:12:19Z</time>
      </trkpt>
      <trkpt lat="47.82295" lon="2.33175">
        <ele>108</ele>
        <time>2025-04-20T17:12:24Z</time>
      </trkpt>
      <trkpt lat="47.82284" lon="2.33165">
        <ele>108</ele>
        <time>2025-04-20T17:12:26Z</time>
      </trkpt>
      <trkpt lat="47.82275" lon="2.33154">
        <ele>108</ele>
        <time>2025-04-20T17:12:29Z</time>
      </trkpt>
      <trkpt lat="47.82226" lon="2.33078">
        <ele>109</ele>
        <time>2025-04-20T17:12:41Z</time>
      </trkpt>
      <trkpt lat="47.82222" lon="2.33072">
        <ele>109</ele>
        <time>2025-04-20T17:12:42Z</time>
      </trkpt>
      <trkpt lat="47.82219" lon="2.33067">
        <ele>109</ele>
        <time>2025-04-20T17:12:43Z</time>
      </trkpt>
      <trkpt lat="47.82106" lon="2.32887">
        <ele>108</ele>
        <time>2025-04-20T17:13:12Z</time>
      </trkpt>
      <trkpt lat="47.82081" lon="2.3291">
        <ele>107</ele>
        <time>2025-04-20T17:13:18Z</time>
      </trkpt>
      <trkpt lat="47.8206" lon="2.32926">
        <ele>108</ele>
        <time>2025-04-20T17:13:22Z</time>
      </trkpt>
      <trkpt lat="47.82037" lon="2.32937">
        <ele>109</ele>
        <time>2025-04-20T17:13:26Z</time>
      </trkpt>
      <trkpt lat="47.82001" lon="2.32947">
        <ele>110</ele>
        <time>2025-04-20T17:13:33Z</time>
      </trkpt>
      <trkpt lat="47.81972" lon="2.3293">
        <ele>109</ele>
        <time>2025-04-20T17:13:38Z</time>
      </trkpt>
      <trkpt lat="47.81932" lon="2.32887">
        <ele>109</ele>
        <time>2025-04-20T17:13:47Z</time>
      </trkpt>
      <trkpt lat="47.81924" lon="2.32878">
        <ele>109</ele>
        <time>2025-04-20T17:13:49Z</time>
      </trkpt>
      <trkpt lat="47.81911" lon="2.32859">
        <ele>109</ele>
        <time>2025-04-20T17:13:52Z</time>
      </trkpt>
      <trkpt lat="47.81907" lon="2.3285">
        <ele>109</ele>
        <time>2025-04-20T17:13:53Z</time>
      </trkpt>
      <trkpt lat="47.81899" lon="2.3283">
        <ele>109</ele>
        <time>2025-04-20T17:13:56Z</time>
      </trkpt>
      <trkpt lat="47.81886" lon="2.32797">
        <ele>109</ele>
        <time>2025-04-20T17:14:01Z</time>
      </trkpt>
      <trkpt lat="47.81875" lon="2.3277">
        <ele>109</ele>
        <time>2025-04-20T17:14:04Z</time>
      </trkpt>
      <trkpt lat="47.81846" lon="2.32711">
        <ele>109</ele>
        <time>2025-04-20T17:14:13Z</time>
      </trkpt>
      <trkpt lat="47.81835" lon="2.32684">
        <ele>108</ele>
        <time>2025-04-20T17:14:17Z</time>
      </trkpt>
      <trkpt lat="47.81829" lon="2.32668">
        <ele>108</ele>
        <time>2025-04-20T17:14:19Z</time>
      </trkpt>
      <trkpt lat="47.81821" lon="2.3264">
        <ele>108</ele>
        <time>2025-04-20T17:14:23Z</time>
      </trkpt>
      <trkpt lat="47.81808" lon="2.32584">
        <ele>108</ele>
        <time>2025-04-20T17:14:30Z</time>
      </trkpt>
      <trkpt lat="47.81802" lon="2.32551">
        <ele>109</ele>
        <time>2025-04-20T17:14:34Z</time>
      </trkpt>
      <trkpt lat="47.81799" lon="2.32525">
        <ele>109</ele>
        <time>2025-04-20T17:14:37Z</time>
      </trkpt>
      <trkpt lat="47.81798" lon="2.32505">
        <ele>109</ele>
        <time>2025-04-20T17:14:39Z</time>
      </trkpt>
      <trkpt lat="47.81797" lon="2.32458">
        <ele>110</ele>
        <time>2025-04-20T17:14:45Z</time>
      </trkpt>
      <trkpt lat="47.81793" lon="2.3241">
        <ele>110</ele>
        <time>2025-04-20T17:14:51Z</time>
      </trkpt>
      <trkpt lat="47.81761" lon="2.32151">
        <ele>109</ele>
        <time>2025-04-20T17:15:22Z</time>
      </trkpt>
      <trkpt lat="47.81755" lon="2.32125">
        <ele>109</ele>
        <time>2025-04-20T17:15:26Z</time>
      </trkpt>
      <trkpt lat="47.81703" lon="2.32071">
        <ele>108</ele>
        <time>2025-04-20T17:15:37Z</time>
      </trkpt>
      <trkpt lat="47.81692" lon="2.32044">
        <ele>108</ele>
        <time>2025-04-20T17:15:41Z</time>
      </trkpt>
      <trkpt lat="47.81679" lon="2.32014">
        <ele>108</ele>
        <time>2025-04-20T17:15:45Z</time>
      </trkpt>
      <trkpt lat="47.81663" lon="2.31994">
        <ele>108</ele>
        <time>2025-04-20T17:15:49Z</time>
      </trkpt>
      <trkpt lat="47.81645" lon="2.31978">
        <ele>108</ele>
        <time>2025-04-20T17:15:52Z</time>
      </trkpt>
      <trkpt lat="47.81538" lon="2.31889">
        <ele>110</ele>
        <time>2025-04-20T17:16:14Z</time>
      </trkpt>
      <trkpt lat="47.81512" lon="2.31873">
        <ele>110</ele>
        <time>2025-04-20T17:16:19Z</time>
      </trkpt>
      <trkpt lat="47.81433" lon="2.31845">
        <ele>109</ele>
        <time>2025-04-20T17:16:34Z</time>
      </trkpt>
      <trkpt lat="47.81368" lon="2.31813">
        <ele>108</ele>
        <time>2025-04-20T17:16:46Z</time>
      </trkpt>
      <trkpt lat="47.8135" lon="2.31807">
        <ele>108</ele>
        <time>2025-04-20T17:16:49Z</time>
      </trkpt>
      <trkpt lat="47.81331" lon="2.31802">
        <ele>108</ele>
        <time>2025-04-20T17:16:52Z</time>
      </trkpt>
      <trkpt lat="47.81318" lon="2.31802">
        <ele>108</ele>
        <time>2025-04-20T17:16:55Z</time>
      </trkpt>
      <trkpt lat="47.81277" lon="2.31806">
        <ele>109</ele>
        <time>2025-04-20T17:17:02Z</time>
      </trkpt>
      <trkpt lat="47.81264" lon="2.31809">
        <ele>109</ele>
        <time>2025-04-20T17:17:04Z</time>
      </trkpt>
      <trkpt lat="47.81232" lon="2.31816">
        <ele>109</ele>
        <time>2025-04-20T17:17:10Z</time>
      </trkpt>
      <trkpt lat="47.81193" lon="2.31828">
        <ele>109</ele>
        <time>2025-04-20T17:17:17Z</time>
      </trkpt>
      <trkpt lat="47.81192" lon="2.31809">
        <ele>109</ele>
        <time>2025-04-20T17:17:20Z</time>
      </trkpt>
      <trkpt lat="47.81195" lon="2.31723">
        <ele>109</ele>
        <time>2025-04-20T17:17:30Z</time>
      </trkpt>
      <trkpt lat="47.812" lon="2.31624">
        <ele>110</ele>
        <time>2025-04-20T17:17:42Z</time>
      </trkpt>
      <trkpt lat="47.81205" lon="2.31496">
        <ele>109</ele>
        <time>2025-04-20T17:17:57Z</time>
      </trkpt>
      <trkpt lat="47.81208" lon="2.31368">
        <ele>109</ele>
        <time>2025-04-20T17:18:12Z</time>
      </trkpt>
      <trkpt lat="47.8121" lon="2.31316">
        <ele>109</ele>
        <time>2025-04-20T17:18:19Z</time>
      </trkpt>
      <trkpt lat="47.81211" lon="2.31314">
        <ele>109</ele>
        <time>2025-04-20T17:18:19Z</time>
      </trkpt>
      <trkpt lat="47.81229" lon="2.31301">
        <ele>109</ele>
        <time>2025-04-20T17:18:22Z</time>
      </trkpt>
      <trkpt lat="47.8128" lon="2.31258">
        <ele>108</ele>
        <time>2025-04-20T17:18:33Z</time>
      </trkpt>
      <trkpt lat="47.81288" lon="2.31249">
        <ele>108</ele>
        <time>2025-04-20T17:18:35Z</time>
      </trkpt>
      <trkpt lat="47.81294" lon="2.31238">
        <ele>109</ele>
        <time>2025-04-20T17:18:36Z</time>
      </trkpt>
      <trkpt lat="47.81303" lon="2.31221">
        <ele>109</ele>
        <time>2025-04-20T17:18:39Z</time>
      </trkpt>
      <trkpt lat="47.8131" lon="2.31204">
        <ele>109</ele>
        <time>2025-04-20T17:18:41Z</time>
      </trkpt>
      <trkpt lat="47.81322" lon="2.31174">
        <ele>110</ele>
        <time>2025-04-20T17:18:45Z</time>
      </trkpt>
      <trkpt lat="47.81299" lon="2.31155">
        <ele>110</ele>
        <time>2025-04-20T17:18:50Z</time>
      </trkpt>
      <trkpt lat="47.81201" lon="2.31037">
        <ele>110</ele>
        <time>2025-04-20T17:19:13Z</time>
      </trkpt>
      <trkpt lat="47.81179" lon="2.31008">
        <ele>111</ele>
        <time>2025-04-20T17:19:18Z</time>
      </trkpt>
      <trkpt lat="47.81152" lon="2.30972">
        <ele>111</ele>
        <time>2025-04-20T17:19:24Z</time>
      </trkpt>
      <trkpt lat="47.81149" lon="2.30968">
        <ele>111</ele>
        <time>2025-04-20T17:19:25Z</time>
      </trkpt>
      <trkpt lat="47.81136" lon="2.30944">
        <ele>111</ele>
        <time>2025-04-20T17:19:29Z</time>
      </trkpt>
      <trkpt lat="47.81131" lon="2.30934">
        <ele>111</ele>
        <time>2025-04-20T17:19:30Z</time>
      </trkpt>
      <trkpt lat="47.81134" lon="2.3093">
        <ele>111</ele>
        <time>2025-04-20T17:19:31Z</time>
      </trkpt>
      <trkpt lat="47.81131" lon="2.30934">
        <ele>111</ele>
        <time>2025-04-20T17:19:32Z</time>
      </trkpt>
      <trkpt lat="47.81112" lon="2.30898">
        <ele>110</ele>
        <time>2025-04-20T17:19:37Z</time>
      </trkpt>
      <trkpt lat="47.81108" lon="2.30889">
        <ele>110</ele>
        <time>2025-04-20T17:19:38Z</time>
      </trkpt>
      <trkpt lat="47.81103" lon="2.3088">
        <ele>110</ele>
        <time>2025-04-20T17:19:40Z</time>
      </trkpt>
      <trkpt lat="47.81095" lon="2.30866">
        <ele>110</ele>
        <time>2025-04-20T17:19:42Z</time>
      </trkpt>
      <trkpt lat="47.81086" lon="2.30848">
        <ele>109</ele>
        <time>2025-04-20T17:19:45Z</time>
      </trkpt>
      <trkpt lat="47.81079" lon="2.30835">
        <ele>109</ele>
        <time>2025-04-20T17:19:47Z</time>
      </trkpt>
      <trkpt lat="47.81079" lon="2.30834">
        <ele>109</ele>
        <time>2025-04-20T17:19:47Z</time>
      </trkpt>
      <trkpt lat="47.81073" lon="2.30823">
        <ele>109</ele>
        <time>2025-04-20T17:19:48Z</time>
      </trkpt>
      <trkpt lat="47.81067" lon="2.30811">
        <ele>110</ele>
        <time>2025-04-20T17:19:50Z</time>
      </trkpt>
      <trkpt lat="47.81058" lon="2.30777">
        <ele>110</ele>
        <time>2025-04-20T17:19:55Z</time>
      </trkpt>
      <trkpt lat="47.81047" lon="2.3073">
        <ele>111</ele>
        <time>2025-04-20T17:20:01Z</time>
      </trkpt>
      <trkpt lat="47.81041" lon="2.30714">
        <ele>111</ele>
        <time>2025-04-20T17:20:03Z</time>
      </trkpt>
      <trkpt lat="47.81033" lon="2.30699">
        <ele>111</ele>
        <time>2025-04-20T17:20:05Z</time>
      </trkpt>
      <trkpt lat="47.81029" lon="2.30694">
        <ele>112</ele>
        <time>2025-04-20T17:20:06Z</time>
      </trkpt>
      <trkpt lat="47.81024" lon="2.30685">
        <ele>112</ele>
        <time>2025-04-20T17:20:07Z</time>
      </trkpt>
      <trkpt lat="47.8102" lon="2.30682">
        <ele>112</ele>
        <time>2025-04-20T17:20:08Z</time>
      </trkpt>
      <trkpt lat="47.81015" lon="2.30682">
        <ele>112</ele>
        <time>2025-04-20T17:20:09Z</time>
      </trkpt>
      <trkpt lat="47.80988" lon="2.30719">
        <ele>112</ele>
        <time>2025-04-20T17:20:16Z</time>
      </trkpt>
      <trkpt lat="47.80977" lon="2.30737">
        <ele>111</ele>
        <time>2025-04-20T17:20:18Z</time>
      </trkpt>
      <trkpt lat="47.80966" lon="2.30749">
        <ele>111</ele>
        <time>2025-04-20T17:20:21Z</time>
      </trkpt>
      <trkpt lat="47.80969" lon="2.30762">
        <ele>111</ele>
        <time>2025-04-20T17:20:23Z</time>
      </trkpt>
      <trkpt lat="47.80949" lon="2.30808">
        <ele>112</ele>
        <time>2025-04-20T17:20:29Z</time>
      </trkpt>
      <trkpt lat="47.80953" lon="2.30813">
        <ele>112</ele>
        <time>2025-04-20T17:20:30Z</time>
      </trkpt>
      <trkpt lat="47.80954" lon="2.30814">
        <ele>112</ele>
        <time>2025-04-20T17:20:30Z</time>
      </trkpt>
    </trkseg>
  </trk>
</gpx>